<?xml version="1.0" encoding="UTF-8" standalone="no" ?>
<gpx xmlns="http://www.topografix.com/GPX/1/1" xmlns:xsi="http://www.w3.org/2001/XMLSchema-instance" xsi:schemaLocation="http://www.topografix.com/GPX/1/1 http://www.topografix.com/GPX/1/1/gpx.xsd" version="1.1" creator="VisuGPX - https://www.visugpx.com">
  <metadata>
    <name>windsurf la nautique narbonne</name>
    <desc><![CDATA[windsurf la nautique narbonne]]></desc>
  </metadata>
  <trk>
    <name><![CDATA[ACTIVE LOG143136]]></name>
    <trkseg>
      <trkpt lat="43.14275" lon="3.00077">
        <ele>96.552</ele>
        <time>2011-09-14T12:31:34Z</time>
      </trkpt>
      <trkpt lat="43.14277" lon="3.00073">
        <ele>92.221</ele>
        <time>2011-09-14T12:31:42Z</time>
      </trkpt>
    </trkseg>
  </trk>
  <trk>
    <name><![CDATA[ACTIVE LOG143147]]></name>
    <trkseg>
      <trkpt lat="43.14278" lon="3.00073">
        <ele>90.542</ele>
        <time>2011-09-14T12:31:46Z</time>
      </trkpt>
    </trkseg>
  </trk>
  <trk>
    <name><![CDATA[ACTIVE LOG143148]]></name>
    <trkseg>
      <trkpt lat="43.14278" lon="3.00073">
        <ele>89.639</ele>
        <time>2011-09-14T12:31:47Z</time>
      </trkpt>
      <trkpt lat="43.1428" lon="3.00064">
        <ele>69.716</ele>
        <time>2011-09-14T12:32:31Z</time>
      </trkpt>
      <trkpt lat="43.14276" lon="3.00069">
        <ele>67.087</ele>
        <time>2011-09-14T12:32:47Z</time>
      </trkpt>
      <trkpt lat="43.14266" lon="3.00076">
        <ele>64.216</ele>
        <time>2011-09-14T12:33:29Z</time>
      </trkpt>
      <trkpt lat="43.14265" lon="3.00079">
        <ele>59.807</ele>
        <time>2011-09-14T12:33:56Z</time>
      </trkpt>
      <trkpt lat="43.14262" lon="3.00088">
        <ele>54.943</ele>
        <time>2011-09-14T12:34:29Z</time>
      </trkpt>
      <trkpt lat="43.14261" lon="3.00091">
        <ele>53.915</ele>
        <time>2011-09-14T12:34:33Z</time>
      </trkpt>
      <trkpt lat="43.14255" lon="3.0008">
        <ele>48.903</ele>
        <time>2011-09-14T12:34:48Z</time>
      </trkpt>
      <trkpt lat="43.14256" lon="3.00066">
        <ele>31.004</ele>
        <time>2011-09-14T12:35:07Z</time>
      </trkpt>
      <trkpt lat="43.14259" lon="3.00084">
        <ele>25.247</ele>
        <time>2011-09-14T12:35:24Z</time>
      </trkpt>
      <trkpt lat="43.14255" lon="3.00096">
        <ele>21.597</ele>
        <time>2011-09-14T12:35:45Z</time>
      </trkpt>
      <trkpt lat="43.1425" lon="3.00109">
        <ele>17.128</ele>
        <time>2011-09-14T12:36:38Z</time>
      </trkpt>
      <trkpt lat="43.14242" lon="3.00093">
        <ele>13.133</ele>
        <time>2011-09-14T12:37:00Z</time>
      </trkpt>
      <trkpt lat="43.14238" lon="3.00088">
        <ele>5.281</ele>
        <time>2011-09-14T12:37:25Z</time>
      </trkpt>
      <trkpt lat="43.142" lon="3.00077">
        <ele>2.977</ele>
        <time>2011-09-14T12:37:39Z</time>
      </trkpt>
      <trkpt lat="43.14179" lon="3.00069">
        <ele>2.046</ele>
        <time>2011-09-14T12:37:45Z</time>
      </trkpt>
      <trkpt lat="43.14162" lon="3.00065">
        <ele>1.693</ele>
        <time>2011-09-14T12:37:48Z</time>
      </trkpt>
      <trkpt lat="43.14132" lon="3.00056">
        <ele>1.076</ele>
        <time>2011-09-14T12:37:52Z</time>
      </trkpt>
      <trkpt lat="43.14031" lon="2.99992">
        <ele>-1.357</ele>
        <time>2011-09-14T12:38:03Z</time>
      </trkpt>
      <trkpt lat="43.13959" lon="2.99932">
        <ele>-2.845</ele>
        <time>2011-09-14T12:38:11Z</time>
      </trkpt>
      <trkpt lat="43.13846" lon="2.99822">
        <ele>-2.954</ele>
        <time>2011-09-14T12:38:24Z</time>
      </trkpt>
      <trkpt lat="43.13837" lon="2.99813">
        <ele>-3.015</ele>
        <time>2011-09-14T12:38:25Z</time>
      </trkpt>
      <trkpt lat="43.13803" lon="2.99758">
        <ele>-1.055</ele>
        <time>2011-09-14T12:38:30Z</time>
      </trkpt>
      <trkpt lat="43.13717" lon="2.99686">
        <ele>-1.956</ele>
        <time>2011-09-14T12:38:40Z</time>
      </trkpt>
      <trkpt lat="43.13611" lon="2.99615">
        <ele>-0.307</ele>
        <time>2011-09-14T12:38:51Z</time>
      </trkpt>
      <trkpt lat="43.13505" lon="2.99551">
        <ele>-2.728</ele>
        <time>2011-09-14T12:39:01Z</time>
      </trkpt>
      <trkpt lat="43.13389" lon="2.99467">
        <ele>-6.39</ele>
        <time>2011-09-14T12:39:12Z</time>
      </trkpt>
      <trkpt lat="43.13302" lon="2.99386">
        <ele>-7.285</ele>
        <time>2011-09-14T12:39:21Z</time>
      </trkpt>
      <trkpt lat="43.13193" lon="2.99307">
        <ele>-9.844</ele>
        <time>2011-09-14T12:39:33Z</time>
      </trkpt>
      <trkpt lat="43.13087" lon="2.99264">
        <ele>-6.771</ele>
        <time>2011-09-14T12:39:44Z</time>
      </trkpt>
      <trkpt lat="43.13062" lon="2.99289">
        <ele>-8.492</ele>
        <time>2011-09-14T12:39:49Z</time>
      </trkpt>
      <trkpt lat="43.13064" lon="2.99295">
        <ele>-8.048</ele>
        <time>2011-09-14T12:39:50Z</time>
      </trkpt>
      <trkpt lat="43.13077" lon="2.99318">
        <ele>-5.954</ele>
        <time>2011-09-14T12:39:54Z</time>
      </trkpt>
      <trkpt lat="43.131" lon="2.9935">
        <ele>-6.598</ele>
        <time>2011-09-14T12:40:00Z</time>
      </trkpt>
      <trkpt lat="43.13148" lon="2.99426">
        <ele>-5.878</ele>
        <time>2011-09-14T12:40:11Z</time>
      </trkpt>
      <trkpt lat="43.13191" lon="2.99466">
        <ele>-4.52</ele>
        <time>2011-09-14T12:40:17Z</time>
      </trkpt>
      <trkpt lat="43.13291" lon="2.99541">
        <ele>-1.81</ele>
        <time>2011-09-14T12:40:29Z</time>
      </trkpt>
      <trkpt lat="43.13405" lon="2.99631">
        <ele>-1.199</ele>
        <time>2011-09-14T12:40:43Z</time>
      </trkpt>
      <trkpt lat="43.13488" lon="2.99702">
        <ele>-1.766</ele>
        <time>2011-09-14T12:40:54Z</time>
      </trkpt>
      <trkpt lat="43.1356" lon="2.99771">
        <ele>-2.944</ele>
        <time>2011-09-14T12:41:05Z</time>
      </trkpt>
      <trkpt lat="43.13586" lon="2.99797">
        <ele>-3.16</ele>
        <time>2011-09-14T12:41:09Z</time>
      </trkpt>
      <trkpt lat="43.13684" lon="2.99858">
        <ele>-2.706</ele>
        <time>2011-09-14T12:41:21Z</time>
      </trkpt>
      <trkpt lat="43.13799" lon="2.99895">
        <ele>-4.263</ele>
        <time>2011-09-14T12:41:33Z</time>
      </trkpt>
      <trkpt lat="43.1391" lon="2.99913">
        <ele>-5.263</ele>
        <time>2011-09-14T12:41:44Z</time>
      </trkpt>
      <trkpt lat="43.14021" lon="2.99949">
        <ele>-6.955</ele>
        <time>2011-09-14T12:41:56Z</time>
      </trkpt>
      <trkpt lat="43.14055" lon="2.99961">
        <ele>-7.658</ele>
        <time>2011-09-14T12:42:00Z</time>
      </trkpt>
      <trkpt lat="43.14171" lon="3.0003">
        <ele>-10.019</ele>
        <time>2011-09-14T12:42:13Z</time>
      </trkpt>
      <trkpt lat="43.142" lon="3.00056">
        <ele>-9.298</ele>
        <time>2011-09-14T12:42:16Z</time>
      </trkpt>
      <trkpt lat="43.14234" lon="3.0014">
        <ele>-9.865</ele>
        <time>2011-09-14T12:42:23Z</time>
      </trkpt>
      <trkpt lat="43.14225" lon="3.00144">
        <ele>-8.959</ele>
        <time>2011-09-14T12:42:25Z</time>
      </trkpt>
      <trkpt lat="43.14207" lon="3.00145">
        <ele>-8.242</ele>
        <time>2011-09-14T12:42:28Z</time>
      </trkpt>
      <trkpt lat="43.14168" lon="3.00131">
        <ele>-6.925</ele>
        <time>2011-09-14T12:42:33Z</time>
      </trkpt>
      <trkpt lat="43.14105" lon="3.00087">
        <ele>-6.354</ele>
        <time>2011-09-14T12:42:40Z</time>
      </trkpt>
      <trkpt lat="43.13985" lon="2.99975">
        <ele>-8.023</ele>
        <time>2011-09-14T12:42:53Z</time>
      </trkpt>
      <trkpt lat="43.13894" lon="2.99876">
        <ele>-10.079</ele>
        <time>2011-09-14T12:43:04Z</time>
      </trkpt>
      <trkpt lat="43.13799" lon="2.9978">
        <ele>-6.893</ele>
        <time>2011-09-14T12:43:16Z</time>
      </trkpt>
      <trkpt lat="43.13741" lon="2.99733">
        <ele>-6.267</ele>
        <time>2011-09-14T12:43:23Z</time>
      </trkpt>
      <trkpt lat="43.13713" lon="2.99718">
        <ele>-7.348</ele>
        <time>2011-09-14T12:43:26Z</time>
      </trkpt>
      <trkpt lat="43.13609" lon="2.99644">
        <ele>-5.905</ele>
        <time>2011-09-14T12:43:38Z</time>
      </trkpt>
      <trkpt lat="43.13509" lon="2.99572">
        <ele>-7.154</ele>
        <time>2011-09-14T12:43:50Z</time>
      </trkpt>
      <trkpt lat="43.13408" lon="2.99477">
        <ele>-6.686</ele>
        <time>2011-09-14T12:44:02Z</time>
      </trkpt>
      <trkpt lat="43.13321" lon="2.99383">
        <ele>-7.13</ele>
        <time>2011-09-14T12:44:13Z</time>
      </trkpt>
      <trkpt lat="43.13306" lon="2.99367">
        <ele>-7.707</ele>
        <time>2011-09-14T12:44:15Z</time>
      </trkpt>
      <trkpt lat="43.13233" lon="2.99317">
        <ele>-4.354</ele>
        <time>2011-09-14T12:44:24Z</time>
      </trkpt>
      <trkpt lat="43.13187" lon="2.99325">
        <ele>-3.851</ele>
        <time>2011-09-14T12:44:30Z</time>
      </trkpt>
      <trkpt lat="43.13197" lon="2.99348">
        <ele>-5.111</ele>
        <time>2011-09-14T12:44:34Z</time>
      </trkpt>
      <trkpt lat="43.13226" lon="2.99368">
        <ele>-5.196</ele>
        <time>2011-09-14T12:44:39Z</time>
      </trkpt>
      <trkpt lat="43.13259" lon="2.99386">
        <ele>-4.419</ele>
        <time>2011-09-14T12:44:43Z</time>
      </trkpt>
      <trkpt lat="43.13305" lon="2.9941">
        <ele>-2.879</ele>
        <time>2011-09-14T12:44:48Z</time>
      </trkpt>
      <trkpt lat="43.13437" lon="2.99437">
        <ele>-3.904</ele>
        <time>2011-09-14T12:45:00Z</time>
      </trkpt>
      <trkpt lat="43.1347" lon="2.99441">
        <ele>-5.933</ele>
        <time>2011-09-14T12:45:03Z</time>
      </trkpt>
      <trkpt lat="43.13605" lon="2.99452">
        <ele>-4.841</ele>
        <time>2011-09-14T12:45:16Z</time>
      </trkpt>
      <trkpt lat="43.13688" lon="2.9946">
        <ele>-5.79</ele>
        <time>2011-09-14T12:45:25Z</time>
      </trkpt>
      <trkpt lat="43.13816" lon="2.99488">
        <ele>-6.513</ele>
        <time>2011-09-14T12:45:39Z</time>
      </trkpt>
      <trkpt lat="43.13909" lon="2.99519">
        <ele>-7.334</ele>
        <time>2011-09-14T12:45:50Z</time>
      </trkpt>
      <trkpt lat="43.14035" lon="2.99561">
        <ele>-5.055</ele>
        <time>2011-09-14T12:46:03Z</time>
      </trkpt>
      <trkpt lat="43.14131" lon="2.9959">
        <ele>-4.835</ele>
        <time>2011-09-14T12:46:14Z</time>
      </trkpt>
      <trkpt lat="43.14227" lon="2.99631">
        <ele>-3.03</ele>
        <time>2011-09-14T12:46:25Z</time>
      </trkpt>
      <trkpt lat="43.14318" lon="2.99651">
        <ele>-4.76</ele>
        <time>2011-09-14T12:46:35Z</time>
      </trkpt>
      <trkpt lat="43.14338" lon="2.99656">
        <ele>-3.718</ele>
        <time>2011-09-14T12:46:38Z</time>
      </trkpt>
      <trkpt lat="43.14354" lon="2.99654">
        <ele>-4.328</ele>
        <time>2011-09-14T12:46:46Z</time>
      </trkpt>
      <trkpt lat="43.14353" lon="2.99658">
        <ele>-3.649</ele>
        <time>2011-09-14T12:47:12Z</time>
      </trkpt>
      <trkpt lat="43.14353" lon="2.99656">
        <ele>-3.201</ele>
        <time>2011-09-14T12:47:57Z</time>
      </trkpt>
      <trkpt lat="43.14328" lon="2.99643">
        <ele>-3.125</ele>
        <time>2011-09-14T12:48:07Z</time>
      </trkpt>
      <trkpt lat="43.14311" lon="2.99638">
        <ele>-2.487</ele>
        <time>2011-09-14T12:48:11Z</time>
      </trkpt>
      <trkpt lat="43.14235" lon="2.99596">
        <ele>-0.948</ele>
        <time>2011-09-14T12:48:21Z</time>
      </trkpt>
      <trkpt lat="43.14134" lon="2.99526">
        <ele>1.748</ele>
        <time>2011-09-14T12:48:32Z</time>
      </trkpt>
      <trkpt lat="43.14039" lon="2.99457">
        <ele>2.834</ele>
        <time>2011-09-14T12:48:42Z</time>
      </trkpt>
      <trkpt lat="43.13951" lon="2.99429">
        <ele>1.685</ele>
        <time>2011-09-14T12:48:52Z</time>
      </trkpt>
      <trkpt lat="43.13864" lon="2.99404">
        <ele>3.856</ele>
        <time>2011-09-14T12:49:02Z</time>
      </trkpt>
      <trkpt lat="43.13756" lon="2.99373">
        <ele>4.85</ele>
        <time>2011-09-14T12:49:13Z</time>
      </trkpt>
      <trkpt lat="43.13657" lon="2.99283">
        <ele>4.874</ele>
        <time>2011-09-14T12:49:25Z</time>
      </trkpt>
      <trkpt lat="43.13635" lon="2.99261">
        <ele>3.373</ele>
        <time>2011-09-14T12:49:28Z</time>
      </trkpt>
      <trkpt lat="43.1361" lon="2.99222">
        <ele>3.362</ele>
        <time>2011-09-14T12:49:32Z</time>
      </trkpt>
      <trkpt lat="43.13528" lon="2.99172">
        <ele>1.696</ele>
        <time>2011-09-14T12:49:42Z</time>
      </trkpt>
      <trkpt lat="43.13418" lon="2.99125">
        <ele>2.421</ele>
        <time>2011-09-14T12:49:54Z</time>
      </trkpt>
      <trkpt lat="43.13408" lon="2.99123">
        <ele>2.898</ele>
        <time>2011-09-14T12:49:55Z</time>
      </trkpt>
      <trkpt lat="43.13373" lon="2.99145">
        <ele>0.552</ele>
        <time>2011-09-14T12:50:00Z</time>
      </trkpt>
      <trkpt lat="43.13381" lon="2.99155">
        <ele>0.07</ele>
        <time>2011-09-14T12:50:02Z</time>
      </trkpt>
      <trkpt lat="43.13401" lon="2.99172">
        <ele>-1.788</ele>
        <time>2011-09-14T12:50:06Z</time>
      </trkpt>
      <trkpt lat="43.13493" lon="2.99218">
        <ele>-0.945</ele>
        <time>2011-09-14T12:50:16Z</time>
      </trkpt>
      <trkpt lat="43.13621" lon="2.99271">
        <ele>-2.673</ele>
        <time>2011-09-14T12:50:29Z</time>
      </trkpt>
      <trkpt lat="43.13752" lon="2.99333">
        <ele>-0.219</ele>
        <time>2011-09-14T12:50:42Z</time>
      </trkpt>
      <trkpt lat="43.13849" lon="2.99388">
        <ele>-1.032</ele>
        <time>2011-09-14T12:50:53Z</time>
      </trkpt>
      <trkpt lat="43.1393" lon="2.99429">
        <ele>-1.802</ele>
        <time>2011-09-14T12:51:02Z</time>
      </trkpt>
      <trkpt lat="43.1407" lon="2.99465">
        <ele>-2.063</ele>
        <time>2011-09-14T12:51:17Z</time>
      </trkpt>
      <trkpt lat="43.14203" lon="2.99483">
        <ele>-2.57</ele>
        <time>2011-09-14T12:51:31Z</time>
      </trkpt>
      <trkpt lat="43.14315" lon="2.995">
        <ele>1.547</ele>
        <time>2011-09-14T12:51:43Z</time>
      </trkpt>
      <trkpt lat="43.14342" lon="2.99511">
        <ele>2.211</ele>
        <time>2011-09-14T12:51:46Z</time>
      </trkpt>
      <trkpt lat="43.14471" lon="2.99544">
        <ele>2.864</ele>
        <time>2011-09-14T12:52:01Z</time>
      </trkpt>
      <trkpt lat="43.14478" lon="2.99546">
        <ele>3.004</ele>
        <time>2011-09-14T12:52:02Z</time>
      </trkpt>
      <trkpt lat="43.14499" lon="2.99536">
        <ele>4.703</ele>
        <time>2011-09-14T12:52:08Z</time>
      </trkpt>
      <trkpt lat="43.14497" lon="2.99534">
        <ele>5.231</ele>
        <time>2011-09-14T12:52:13Z</time>
      </trkpt>
      <trkpt lat="43.14463" lon="2.99532">
        <ele>4.519</ele>
        <time>2011-09-14T12:52:26Z</time>
      </trkpt>
      <trkpt lat="43.14426" lon="2.99536">
        <ele>5.096</ele>
        <time>2011-09-14T12:52:37Z</time>
      </trkpt>
      <trkpt lat="43.14389" lon="2.99532">
        <ele>2.928</ele>
        <time>2011-09-14T12:52:51Z</time>
      </trkpt>
      <trkpt lat="43.14356" lon="2.99529">
        <ele>0.838</ele>
        <time>2011-09-14T12:53:05Z</time>
      </trkpt>
      <trkpt lat="43.14329" lon="2.99526">
        <ele>-0.519</ele>
        <time>2011-09-14T12:53:18Z</time>
      </trkpt>
      <trkpt lat="43.143" lon="2.99529">
        <ele>1.61</ele>
        <time>2011-09-14T12:53:28Z</time>
      </trkpt>
      <trkpt lat="43.14274" lon="2.99537">
        <ele>0.172</ele>
        <time>2011-09-14T12:53:33Z</time>
      </trkpt>
      <trkpt lat="43.14204" lon="2.99524">
        <ele>-1.035</ele>
        <time>2011-09-14T12:53:42Z</time>
      </trkpt>
      <trkpt lat="43.14104" lon="2.99505">
        <ele>-0.886</ele>
        <time>2011-09-14T12:53:53Z</time>
      </trkpt>
      <trkpt lat="43.13986" lon="2.99531">
        <ele>-2.934</ele>
        <time>2011-09-14T12:54:04Z</time>
      </trkpt>
      <trkpt lat="43.13877" lon="2.99551">
        <ele>-7.551</ele>
        <time>2011-09-14T12:54:14Z</time>
      </trkpt>
      <trkpt lat="43.13726" lon="2.99568">
        <ele>-5.068</ele>
        <time>2011-09-14T12:54:28Z</time>
      </trkpt>
      <trkpt lat="43.13604" lon="2.99615">
        <ele>0.461</ele>
        <time>2011-09-14T12:54:39Z</time>
      </trkpt>
      <trkpt lat="43.13467" lon="2.99628">
        <ele>1.058</ele>
        <time>2011-09-14T12:54:50Z</time>
      </trkpt>
      <trkpt lat="43.13343" lon="2.99639">
        <ele>1.534</ele>
        <time>2011-09-14T12:55:00Z</time>
      </trkpt>
      <trkpt lat="43.13229" lon="2.99631">
        <ele>-0.067</ele>
        <time>2011-09-14T12:55:11Z</time>
      </trkpt>
      <trkpt lat="43.13174" lon="2.99643">
        <ele>1.194</ele>
        <time>2011-09-14T12:55:16Z</time>
      </trkpt>
      <trkpt lat="43.13043" lon="2.99642">
        <ele>3.899</ele>
        <time>2011-09-14T12:55:28Z</time>
      </trkpt>
      <trkpt lat="43.12953" lon="2.99639">
        <ele>6.723</ele>
        <time>2011-09-14T12:55:36Z</time>
      </trkpt>
      <trkpt lat="43.12833" lon="2.99659">
        <ele>7.771</ele>
        <time>2011-09-14T12:55:47Z</time>
      </trkpt>
      <trkpt lat="43.12823" lon="2.9966">
        <ele>8.116</ele>
        <time>2011-09-14T12:55:48Z</time>
      </trkpt>
      <trkpt lat="43.1274" lon="2.99641">
        <ele>10.47</ele>
        <time>2011-09-14T12:55:56Z</time>
      </trkpt>
      <trkpt lat="43.12667" lon="2.99584">
        <ele>9.781</ele>
        <time>2011-09-14T12:56:04Z</time>
      </trkpt>
      <trkpt lat="43.12604" lon="2.99572">
        <ele>10.155</ele>
        <time>2011-09-14T12:56:11Z</time>
      </trkpt>
      <trkpt lat="43.12606" lon="2.99593">
        <ele>10.71</ele>
        <time>2011-09-14T12:56:15Z</time>
      </trkpt>
      <trkpt lat="43.1261" lon="2.99596">
        <ele>10.288</ele>
        <time>2011-09-14T12:56:17Z</time>
      </trkpt>
      <trkpt lat="43.12633" lon="2.99619">
        <ele>10.768</ele>
        <time>2011-09-14T12:56:24Z</time>
      </trkpt>
      <trkpt lat="43.12702" lon="2.99688">
        <ele>10.961</ele>
        <time>2011-09-14T12:56:35Z</time>
      </trkpt>
      <trkpt lat="43.12805" lon="2.99762">
        <ele>11.14</ele>
        <time>2011-09-14T12:56:48Z</time>
      </trkpt>
      <trkpt lat="43.1282" lon="2.99774">
        <ele>11.17</ele>
        <time>2011-09-14T12:56:50Z</time>
      </trkpt>
      <trkpt lat="43.1292" lon="2.99841">
        <ele>9.959</ele>
        <time>2011-09-14T12:57:02Z</time>
      </trkpt>
      <trkpt lat="43.13014" lon="2.99885">
        <ele>10.803</ele>
        <time>2011-09-14T12:57:13Z</time>
      </trkpt>
      <trkpt lat="43.13089" lon="2.99931">
        <ele>9.91</ele>
        <time>2011-09-14T12:57:22Z</time>
      </trkpt>
      <trkpt lat="43.13208" lon="2.99965">
        <ele>10.347</ele>
        <time>2011-09-14T12:57:34Z</time>
      </trkpt>
      <trkpt lat="43.1331" lon="2.99984">
        <ele>8.079</ele>
        <time>2011-09-14T12:57:45Z</time>
      </trkpt>
      <trkpt lat="43.13404" lon="3">
        <ele>4.366</ele>
        <time>2011-09-14T12:57:56Z</time>
      </trkpt>
      <trkpt lat="43.13498" lon="3.00009">
        <ele>1.373</ele>
        <time>2011-09-14T12:58:06Z</time>
      </trkpt>
      <trkpt lat="43.13639" lon="3.00018">
        <ele>-1.266</ele>
        <time>2011-09-14T12:58:20Z</time>
      </trkpt>
      <trkpt lat="43.1365" lon="3.00018">
        <ele>0.309</ele>
        <time>2011-09-14T12:58:21Z</time>
      </trkpt>
      <trkpt lat="43.13801" lon="3.00036">
        <ele>-7.462</ele>
        <time>2011-09-14T12:58:35Z</time>
      </trkpt>
      <trkpt lat="43.13822" lon="3.00038">
        <ele>-5.339</ele>
        <time>2011-09-14T12:58:37Z</time>
      </trkpt>
      <trkpt lat="43.13901" lon="3.00052">
        <ele>-5.184</ele>
        <time>2011-09-14T12:58:46Z</time>
      </trkpt>
      <trkpt lat="43.13995" lon="3.00104">
        <ele>-2.363</ele>
        <time>2011-09-14T12:58:58Z</time>
      </trkpt>
      <trkpt lat="43.14102" lon="3.00174">
        <ele>-5.045</ele>
        <time>2011-09-14T12:59:11Z</time>
      </trkpt>
      <trkpt lat="43.14193" lon="3.00286">
        <ele>-7.47</ele>
        <time>2011-09-14T12:59:23Z</time>
      </trkpt>
      <trkpt lat="43.14193" lon="3.00322">
        <ele>-8.205</ele>
        <time>2011-09-14T12:59:28Z</time>
      </trkpt>
      <trkpt lat="43.14187" lon="3.00323">
        <ele>-8.708</ele>
        <time>2011-09-14T12:59:30Z</time>
      </trkpt>
      <trkpt lat="43.14175" lon="3.00327">
        <ele>-7.725</ele>
        <time>2011-09-14T12:59:33Z</time>
      </trkpt>
      <trkpt lat="43.14099" lon="3.00349">
        <ele>-8.069</ele>
        <time>2011-09-14T12:59:45Z</time>
      </trkpt>
      <trkpt lat="43.1406" lon="3.00345">
        <ele>-7.529</ele>
        <time>2011-09-14T12:59:49Z</time>
      </trkpt>
      <trkpt lat="43.13957" lon="3.003">
        <ele>-7.401</ele>
        <time>2011-09-14T12:59:59Z</time>
      </trkpt>
      <trkpt lat="43.13833" lon="3.0026">
        <ele>-1.389</ele>
        <time>2011-09-14T13:00:11Z</time>
      </trkpt>
      <trkpt lat="43.13791" lon="3.00252">
        <ele>-1.846</ele>
        <time>2011-09-14T13:00:15Z</time>
      </trkpt>
      <trkpt lat="43.13655" lon="3.00264">
        <ele>0.667</ele>
        <time>2011-09-14T13:00:28Z</time>
      </trkpt>
      <trkpt lat="43.13645" lon="3.00263">
        <ele>1.893</ele>
        <time>2011-09-14T13:00:29Z</time>
      </trkpt>
      <trkpt lat="43.13614" lon="3.00256">
        <ele>4.192</ele>
        <time>2011-09-14T13:00:32Z</time>
      </trkpt>
      <trkpt lat="43.13582" lon="3.00255">
        <ele>4.919</ele>
        <time>2011-09-14T13:00:35Z</time>
      </trkpt>
      <trkpt lat="43.13464" lon="3.00225">
        <ele>6.773</ele>
        <time>2011-09-14T13:00:46Z</time>
      </trkpt>
      <trkpt lat="43.13433" lon="3.00223">
        <ele>6.226</ele>
        <time>2011-09-14T13:00:49Z</time>
      </trkpt>
      <trkpt lat="43.13294" lon="3.00182">
        <ele>5.69</ele>
        <time>2011-09-14T13:01:03Z</time>
      </trkpt>
      <trkpt lat="43.13167" lon="3.00158">
        <ele>4.546</ele>
        <time>2011-09-14T13:01:16Z</time>
      </trkpt>
      <trkpt lat="43.13055" lon="3.00132">
        <ele>-3.609</ele>
        <time>2011-09-14T13:01:28Z</time>
      </trkpt>
      <trkpt lat="43.12923" lon="3.00112">
        <ele>-7.415</ele>
        <time>2011-09-14T13:01:40Z</time>
      </trkpt>
      <trkpt lat="43.12799" lon="3.00094">
        <ele>-5.867</ele>
        <time>2011-09-14T13:01:51Z</time>
      </trkpt>
      <trkpt lat="43.1267" lon="3.00075">
        <ele>-3.331</ele>
        <time>2011-09-14T13:02:04Z</time>
      </trkpt>
      <trkpt lat="43.12613" lon="3.00063">
        <ele>-3.565</ele>
        <time>2011-09-14T13:02:10Z</time>
      </trkpt>
      <trkpt lat="43.12586" lon="3.0009">
        <ele>-3.794</ele>
        <time>2011-09-14T13:02:15Z</time>
      </trkpt>
      <trkpt lat="43.12596" lon="3.00102">
        <ele>-3.91</ele>
        <time>2011-09-14T13:02:18Z</time>
      </trkpt>
      <trkpt lat="43.12606" lon="3.00112">
        <ele>-3.664</ele>
        <time>2011-09-14T13:02:20Z</time>
      </trkpt>
      <trkpt lat="43.1263" lon="3.00135">
        <ele>-5.075</ele>
        <time>2011-09-14T13:02:24Z</time>
      </trkpt>
      <trkpt lat="43.12671" lon="3.00158">
        <ele>-4.338</ele>
        <time>2011-09-14T13:02:29Z</time>
      </trkpt>
      <trkpt lat="43.12786" lon="3.00165">
        <ele>-8.446</ele>
        <time>2011-09-14T13:02:41Z</time>
      </trkpt>
      <trkpt lat="43.12905" lon="3.0018">
        <ele>-6.717</ele>
        <time>2011-09-14T13:02:54Z</time>
      </trkpt>
      <trkpt lat="43.12949" lon="3.00184">
        <ele>-6.849</ele>
        <time>2011-09-14T13:02:59Z</time>
      </trkpt>
      <trkpt lat="43.12991" lon="3.00204">
        <ele>-6.619</ele>
        <time>2011-09-14T13:03:05Z</time>
      </trkpt>
      <trkpt lat="43.13024" lon="3.00228">
        <ele>-6.015</ele>
        <time>2011-09-14T13:03:15Z</time>
      </trkpt>
      <trkpt lat="43.13054" lon="3.00236">
        <ele>-2.61</ele>
        <time>2011-09-14T13:03:28Z</time>
      </trkpt>
      <trkpt lat="43.13085" lon="3.00245">
        <ele>-4.203</ele>
        <time>2011-09-14T13:03:42Z</time>
      </trkpt>
      <trkpt lat="43.13092" lon="3.00241">
        <ele>-4.324</ele>
        <time>2011-09-14T13:03:48Z</time>
      </trkpt>
      <trkpt lat="43.13102" lon="3.00246">
        <ele>-4.133</ele>
        <time>2011-09-14T13:04:03Z</time>
      </trkpt>
      <trkpt lat="43.13105" lon="3.0026">
        <ele>-3.18</ele>
        <time>2011-09-14T13:04:17Z</time>
      </trkpt>
      <trkpt lat="43.13114" lon="3.00276">
        <ele>-3.449</ele>
        <time>2011-09-14T13:04:34Z</time>
      </trkpt>
      <trkpt lat="43.13145" lon="3.00287">
        <ele>-2.501</ele>
        <time>2011-09-14T13:04:45Z</time>
      </trkpt>
      <trkpt lat="43.13218" lon="3.00293">
        <ele>-1.456</ele>
        <time>2011-09-14T13:04:54Z</time>
      </trkpt>
      <trkpt lat="43.13331" lon="3.00299">
        <ele>-1.839</ele>
        <time>2011-09-14T13:05:06Z</time>
      </trkpt>
      <trkpt lat="43.13466" lon="3.00325">
        <ele>-1.171</ele>
        <time>2011-09-14T13:05:21Z</time>
      </trkpt>
      <trkpt lat="43.13616" lon="3.00342">
        <ele>1.654</ele>
        <time>2011-09-14T13:05:36Z</time>
      </trkpt>
      <trkpt lat="43.13743" lon="3.0038">
        <ele>-4.306</ele>
        <time>2011-09-14T13:05:49Z</time>
      </trkpt>
      <trkpt lat="43.13851" lon="3.0042">
        <ele>-5.327</ele>
        <time>2011-09-14T13:06:01Z</time>
      </trkpt>
      <trkpt lat="43.13884" lon="3.00433">
        <ele>-7.598</ele>
        <time>2011-09-14T13:06:05Z</time>
      </trkpt>
      <trkpt lat="43.13921" lon="3.0045">
        <ele>-8.682</ele>
        <time>2011-09-14T13:06:10Z</time>
      </trkpt>
      <trkpt lat="43.13939" lon="3.00464">
        <ele>-8.669</ele>
        <time>2011-09-14T13:06:13Z</time>
      </trkpt>
      <trkpt lat="43.13966" lon="3.00479">
        <ele>-8.435</ele>
        <time>2011-09-14T13:06:17Z</time>
      </trkpt>
      <trkpt lat="43.13989" lon="3.00512">
        <ele>-8.299</ele>
        <time>2011-09-14T13:06:24Z</time>
      </trkpt>
      <trkpt lat="43.13984" lon="3.00511">
        <ele>-8.709</ele>
        <time>2011-09-14T13:06:27Z</time>
      </trkpt>
      <trkpt lat="43.13955" lon="3.00499">
        <ele>-11.592</ele>
        <time>2011-09-14T13:06:41Z</time>
      </trkpt>
      <trkpt lat="43.13912" lon="3.00491">
        <ele>-9.055</ele>
        <time>2011-09-14T13:06:57Z</time>
      </trkpt>
      <trkpt lat="43.13898" lon="3.00497">
        <ele>-10</ele>
        <time>2011-09-14T13:07:01Z</time>
      </trkpt>
      <trkpt lat="43.13851" lon="3.00491">
        <ele>-7.525</ele>
        <time>2011-09-14T13:07:14Z</time>
      </trkpt>
      <trkpt lat="43.13844" lon="3.00492">
        <ele>-9.136</ele>
        <time>2011-09-14T13:07:16Z</time>
      </trkpt>
      <trkpt lat="43.1383" lon="3.00493">
        <ele>-10.076</ele>
        <time>2011-09-14T13:07:19Z</time>
      </trkpt>
      <trkpt lat="43.13816" lon="3.00493">
        <ele>-10.573</ele>
        <time>2011-09-14T13:07:21Z</time>
      </trkpt>
      <trkpt lat="43.13795" lon="3.0049">
        <ele>-8.253</ele>
        <time>2011-09-14T13:07:24Z</time>
      </trkpt>
      <trkpt lat="43.1377" lon="3.00481">
        <ele>-7.506</ele>
        <time>2011-09-14T13:07:27Z</time>
      </trkpt>
      <trkpt lat="43.13648" lon="3.00452">
        <ele>-6.278</ele>
        <time>2011-09-14T13:07:41Z</time>
      </trkpt>
      <trkpt lat="43.13549" lon="3.00426">
        <ele>-2.542</ele>
        <time>2011-09-14T13:07:53Z</time>
      </trkpt>
      <trkpt lat="43.13422" lon="3.00391">
        <ele>1.09</ele>
        <time>2011-09-14T13:08:07Z</time>
      </trkpt>
      <trkpt lat="43.1331" lon="3.00339">
        <ele>3.586</ele>
        <time>2011-09-14T13:08:19Z</time>
      </trkpt>
      <trkpt lat="43.1329" lon="3.00327">
        <ele>0.686</ele>
        <time>2011-09-14T13:08:21Z</time>
      </trkpt>
      <trkpt lat="43.13242" lon="3.00286">
        <ele>-0.128</ele>
        <time>2011-09-14T13:08:27Z</time>
      </trkpt>
      <trkpt lat="43.13125" lon="3.00226">
        <ele>-1.842</ele>
        <time>2011-09-14T13:08:41Z</time>
      </trkpt>
      <trkpt lat="43.1302" lon="3.00171">
        <ele>-4.539</ele>
        <time>2011-09-14T13:08:53Z</time>
      </trkpt>
      <trkpt lat="43.12926" lon="3.00116">
        <ele>-4.306</ele>
        <time>2011-09-14T13:09:04Z</time>
      </trkpt>
      <trkpt lat="43.12819" lon="3.00035">
        <ele>-1.838</ele>
        <time>2011-09-14T13:09:17Z</time>
      </trkpt>
      <trkpt lat="43.12713" lon="2.99954">
        <ele>-3.268</ele>
        <time>2011-09-14T13:09:30Z</time>
      </trkpt>
      <trkpt lat="43.12698" lon="2.99947">
        <ele>-2.954</ele>
        <time>2011-09-14T13:09:32Z</time>
      </trkpt>
      <trkpt lat="43.12639" lon="2.99931">
        <ele>-4.463</ele>
        <time>2011-09-14T13:09:43Z</time>
      </trkpt>
      <trkpt lat="43.12637" lon="2.9993">
        <ele>-4.042</ele>
        <time>2011-09-14T13:09:56Z</time>
      </trkpt>
      <trkpt lat="43.12638" lon="2.9993">
        <ele>-4.058</ele>
        <time>2011-09-14T13:09:57Z</time>
      </trkpt>
      <trkpt lat="43.12669" lon="2.99946">
        <ele>-3.812</ele>
        <time>2011-09-14T13:10:13Z</time>
      </trkpt>
      <trkpt lat="43.12694" lon="2.99958">
        <ele>-5.973</ele>
        <time>2011-09-14T13:10:25Z</time>
      </trkpt>
      <trkpt lat="43.12724" lon="2.99967">
        <ele>-7.495</ele>
        <time>2011-09-14T13:10:40Z</time>
      </trkpt>
      <trkpt lat="43.12754" lon="2.99982">
        <ele>-7.004</ele>
        <time>2011-09-14T13:10:54Z</time>
      </trkpt>
      <trkpt lat="43.12786" lon="2.99999">
        <ele>-2.891</ele>
        <time>2011-09-14T13:11:09Z</time>
      </trkpt>
      <trkpt lat="43.12812" lon="3.00012">
        <ele>-6.491</ele>
        <time>2011-09-14T13:11:23Z</time>
      </trkpt>
      <trkpt lat="43.12839" lon="3.00041">
        <ele>-6.005</ele>
        <time>2011-09-14T13:11:32Z</time>
      </trkpt>
      <trkpt lat="43.12844" lon="3.00046">
        <ele>-6.146</ele>
        <time>2011-09-14T13:11:33Z</time>
      </trkpt>
      <trkpt lat="43.12936" lon="3.00078">
        <ele>-2.46</ele>
        <time>2011-09-14T13:11:45Z</time>
      </trkpt>
      <trkpt lat="43.13053" lon="3.00094">
        <ele>1.85</ele>
        <time>2011-09-14T13:11:58Z</time>
      </trkpt>
      <trkpt lat="43.13172" lon="3.001">
        <ele>1.871</ele>
        <time>2011-09-14T13:12:09Z</time>
      </trkpt>
      <trkpt lat="43.13237" lon="3.00099">
        <ele>2.466</ele>
        <time>2011-09-14T13:12:15Z</time>
      </trkpt>
      <trkpt lat="43.13328" lon="3.00105">
        <ele>-0.865</ele>
        <time>2011-09-14T13:12:24Z</time>
      </trkpt>
      <trkpt lat="43.13409" lon="3.00089">
        <ele>1.602</ele>
        <time>2011-09-14T13:12:32Z</time>
      </trkpt>
      <trkpt lat="43.13572" lon="3.00087">
        <ele>-0.507</ele>
        <time>2011-09-14T13:12:50Z</time>
      </trkpt>
      <trkpt lat="43.13628" lon="3.00094">
        <ele>1.948</ele>
        <time>2011-09-14T13:12:57Z</time>
      </trkpt>
      <trkpt lat="43.1366" lon="3.00113">
        <ele>-0.987</ele>
        <time>2011-09-14T13:13:02Z</time>
      </trkpt>
      <trkpt lat="43.13675" lon="3.0012">
        <ele>0.158</ele>
        <time>2011-09-14T13:13:04Z</time>
      </trkpt>
      <trkpt lat="43.13758" lon="3.0017">
        <ele>-0.725</ele>
        <time>2011-09-14T13:13:16Z</time>
      </trkpt>
      <trkpt lat="43.13807" lon="3.002">
        <ele>-0.809</ele>
        <time>2011-09-14T13:13:23Z</time>
      </trkpt>
      <trkpt lat="43.13929" lon="3.00254">
        <ele>0.904</ele>
        <time>2011-09-14T13:13:39Z</time>
      </trkpt>
      <trkpt lat="43.13938" lon="3.00253">
        <ele>3.227</ele>
        <time>2011-09-14T13:13:46Z</time>
      </trkpt>
      <trkpt lat="43.13936" lon="3.0025">
        <ele>3.742</ele>
        <time>2011-09-14T13:13:50Z</time>
      </trkpt>
      <trkpt lat="43.13926" lon="3.00236">
        <ele>5.708</ele>
        <time>2011-09-14T13:13:56Z</time>
      </trkpt>
      <trkpt lat="43.13903" lon="3.00226">
        <ele>4.549</ele>
        <time>2011-09-14T13:14:00Z</time>
      </trkpt>
      <trkpt lat="43.13856" lon="3.00176">
        <ele>5.375</ele>
        <time>2011-09-14T13:14:07Z</time>
      </trkpt>
      <trkpt lat="43.13838" lon="3.00149">
        <ele>6.666</ele>
        <time>2011-09-14T13:14:10Z</time>
      </trkpt>
      <trkpt lat="43.13801" lon="3.0012">
        <ele>6.325</ele>
        <time>2011-09-14T13:14:15Z</time>
      </trkpt>
      <trkpt lat="43.13698" lon="3.0002">
        <ele>9.088</ele>
        <time>2011-09-14T13:14:28Z</time>
      </trkpt>
      <trkpt lat="43.13587" lon="2.99915">
        <ele>2.687</ele>
        <time>2011-09-14T13:14:42Z</time>
      </trkpt>
      <trkpt lat="43.13574" lon="2.99902">
        <ele>2.765</ele>
        <time>2011-09-14T13:14:44Z</time>
      </trkpt>
      <trkpt lat="43.13449" lon="2.99823">
        <ele>-0.793</ele>
        <time>2011-09-14T13:15:00Z</time>
      </trkpt>
      <trkpt lat="43.13339" lon="2.99777">
        <ele>-1.045</ele>
        <time>2011-09-14T13:15:13Z</time>
      </trkpt>
      <trkpt lat="43.1331" lon="2.99769">
        <ele>-0.496</ele>
        <time>2011-09-14T13:15:16Z</time>
      </trkpt>
      <trkpt lat="43.13206" lon="2.99679">
        <ele>-0.625</ele>
        <time>2011-09-14T13:15:29Z</time>
      </trkpt>
      <trkpt lat="43.13158" lon="2.99635">
        <ele>1.37</ele>
        <time>2011-09-14T13:15:35Z</time>
      </trkpt>
      <trkpt lat="43.13131" lon="2.99605">
        <ele>2.032</ele>
        <time>2011-09-14T13:15:39Z</time>
      </trkpt>
      <trkpt lat="43.1305" lon="2.99564">
        <ele>0.471</ele>
        <time>2011-09-14T13:15:50Z</time>
      </trkpt>
      <trkpt lat="43.13027" lon="2.99552">
        <ele>-0.708</ele>
        <time>2011-09-14T13:15:53Z</time>
      </trkpt>
      <trkpt lat="43.12993" lon="2.99558">
        <ele>-3.018</ele>
        <time>2011-09-14T13:15:59Z</time>
      </trkpt>
      <trkpt lat="43.12994" lon="2.99563">
        <ele>-3.85</ele>
        <time>2011-09-14T13:16:01Z</time>
      </trkpt>
      <trkpt lat="43.13021" lon="2.99591">
        <ele>-4.166</ele>
        <time>2011-09-14T13:16:13Z</time>
      </trkpt>
      <trkpt lat="43.13025" lon="2.99596">
        <ele>-4.084</ele>
        <time>2011-09-14T13:16:14Z</time>
      </trkpt>
      <trkpt lat="43.13041" lon="2.99618">
        <ele>-3.838</ele>
        <time>2011-09-14T13:16:18Z</time>
      </trkpt>
      <trkpt lat="43.13084" lon="2.9966">
        <ele>-4.82</ele>
        <time>2011-09-14T13:16:27Z</time>
      </trkpt>
      <trkpt lat="43.13121" lon="2.99684">
        <ele>-3.976</ele>
        <time>2011-09-14T13:16:38Z</time>
      </trkpt>
      <trkpt lat="43.13149" lon="2.99704">
        <ele>-2.84</ele>
        <time>2011-09-14T13:16:50Z</time>
      </trkpt>
      <trkpt lat="43.13189" lon="2.99726">
        <ele>-2.367</ele>
        <time>2011-09-14T13:17:07Z</time>
      </trkpt>
      <trkpt lat="43.13201" lon="2.99734">
        <ele>-2.299</ele>
        <time>2011-09-14T13:17:10Z</time>
      </trkpt>
      <trkpt lat="43.13225" lon="2.99744">
        <ele>-0.824</ele>
        <time>2011-09-14T13:17:14Z</time>
      </trkpt>
      <trkpt lat="43.13268" lon="2.99754">
        <ele>0.286</ele>
        <time>2011-09-14T13:17:19Z</time>
      </trkpt>
      <trkpt lat="43.13357" lon="2.99743">
        <ele>0.834</ele>
        <time>2011-09-14T13:17:28Z</time>
      </trkpt>
      <trkpt lat="43.13376" lon="2.99741">
        <ele>-0.796</ele>
        <time>2011-09-14T13:17:30Z</time>
      </trkpt>
      <trkpt lat="43.13448" lon="2.9977">
        <ele>-10.914</ele>
        <time>2011-09-14T13:17:39Z</time>
      </trkpt>
      <trkpt lat="43.13543" lon="2.99807">
        <ele>-20.45</ele>
        <time>2011-09-14T13:17:51Z</time>
      </trkpt>
      <trkpt lat="43.13581" lon="2.99824">
        <ele>-22.322</ele>
        <time>2011-09-14T13:17:56Z</time>
      </trkpt>
      <trkpt lat="43.13674" lon="2.9983">
        <ele>-18.545</ele>
        <time>2011-09-14T13:18:06Z</time>
      </trkpt>
      <trkpt lat="43.13789" lon="2.99819">
        <ele>-11.866</ele>
        <time>2011-09-14T13:18:18Z</time>
      </trkpt>
      <trkpt lat="43.13839" lon="2.99819">
        <ele>-11.462</ele>
        <time>2011-09-14T13:18:24Z</time>
      </trkpt>
      <trkpt lat="43.13935" lon="2.9987">
        <ele>-7.349</ele>
        <time>2011-09-14T13:18:37Z</time>
      </trkpt>
      <trkpt lat="43.14032" lon="2.99933">
        <ele>-3.574</ele>
        <time>2011-09-14T13:18:49Z</time>
      </trkpt>
      <trkpt lat="43.14136" lon="2.99983">
        <ele>-6.009</ele>
        <time>2011-09-14T13:19:00Z</time>
      </trkpt>
      <trkpt lat="43.14145" lon="2.99986">
        <ele>-6.126</ele>
        <time>2011-09-14T13:19:01Z</time>
      </trkpt>
      <trkpt lat="43.14179" lon="3.00007">
        <ele>-8.055</ele>
        <time>2011-09-14T13:19:05Z</time>
      </trkpt>
      <trkpt lat="43.14229" lon="3.00012">
        <ele>-6.784</ele>
        <time>2011-09-14T13:19:12Z</time>
      </trkpt>
      <trkpt lat="43.14229" lon="3.00013">
        <ele>-3.434</ele>
        <time>2011-09-14T13:19:15Z</time>
      </trkpt>
      <trkpt lat="43.1419" lon="2.99981">
        <ele>0.394</ele>
        <time>2011-09-14T13:19:24Z</time>
      </trkpt>
      <trkpt lat="43.14175" lon="2.99968">
        <ele>0.705</ele>
        <time>2011-09-14T13:19:26Z</time>
      </trkpt>
      <trkpt lat="43.1408" lon="2.99865">
        <ele>0.198</ele>
        <time>2011-09-14T13:19:38Z</time>
      </trkpt>
      <trkpt lat="43.14066" lon="2.99849">
        <ele>1.301</ele>
        <time>2011-09-14T13:19:40Z</time>
      </trkpt>
      <trkpt lat="43.14036" lon="2.99816">
        <ele>2.793</ele>
        <time>2011-09-14T13:19:44Z</time>
      </trkpt>
      <trkpt lat="43.13962" lon="2.99723">
        <ele>7.708</ele>
        <time>2011-09-14T13:19:54Z</time>
      </trkpt>
      <trkpt lat="43.13928" lon="2.99698">
        <ele>10.594</ele>
        <time>2011-09-14T13:19:58Z</time>
      </trkpt>
      <trkpt lat="43.13909" lon="2.99688">
        <ele>11.945</ele>
        <time>2011-09-14T13:20:00Z</time>
      </trkpt>
      <trkpt lat="43.13801" lon="2.99599">
        <ele>13.731</ele>
        <time>2011-09-14T13:20:13Z</time>
      </trkpt>
      <trkpt lat="43.13703" lon="2.99487">
        <ele>14.365</ele>
        <time>2011-09-14T13:20:26Z</time>
      </trkpt>
      <trkpt lat="43.13679" lon="2.99461">
        <ele>15.146</ele>
        <time>2011-09-14T13:20:29Z</time>
      </trkpt>
      <trkpt lat="43.13612" lon="2.99422">
        <ele>14.857</ele>
        <time>2011-09-14T13:20:37Z</time>
      </trkpt>
      <trkpt lat="43.13506" lon="2.99389">
        <ele>7.601</ele>
        <time>2011-09-14T13:20:50Z</time>
      </trkpt>
      <trkpt lat="43.13404" lon="2.9935">
        <ele>6.256</ele>
        <time>2011-09-14T13:21:04Z</time>
      </trkpt>
      <trkpt lat="43.13341" lon="2.99306">
        <ele>6.22</ele>
        <time>2011-09-14T13:21:12Z</time>
      </trkpt>
      <trkpt lat="43.13293" lon="2.9929">
        <ele>3.203</ele>
        <time>2011-09-14T13:21:18Z</time>
      </trkpt>
      <trkpt lat="43.13201" lon="2.99284">
        <ele>2.746</ele>
        <time>2011-09-14T13:21:29Z</time>
      </trkpt>
      <trkpt lat="43.13171" lon="2.99309">
        <ele>-0.618</ele>
        <time>2011-09-14T13:21:34Z</time>
      </trkpt>
      <trkpt lat="43.13176" lon="2.99321">
        <ele>-0.799</ele>
        <time>2011-09-14T13:21:37Z</time>
      </trkpt>
      <trkpt lat="43.13182" lon="2.99328">
        <ele>-1.478</ele>
        <time>2011-09-14T13:21:39Z</time>
      </trkpt>
      <trkpt lat="43.1323" lon="2.99371">
        <ele>-5.297</ele>
        <time>2011-09-14T13:21:50Z</time>
      </trkpt>
      <trkpt lat="43.13253" lon="2.99385">
        <ele>-4.253</ele>
        <time>2011-09-14T13:21:53Z</time>
      </trkpt>
      <trkpt lat="43.13353" lon="2.99418">
        <ele>-7.714</ele>
        <time>2011-09-14T13:22:04Z</time>
      </trkpt>
      <trkpt lat="43.13362" lon="2.9942">
        <ele>-8.305</ele>
        <time>2011-09-14T13:22:05Z</time>
      </trkpt>
      <trkpt lat="43.13403" lon="2.99421">
        <ele>-5.532</ele>
        <time>2011-09-14T13:22:09Z</time>
      </trkpt>
      <trkpt lat="43.13445" lon="2.99412">
        <ele>-6.507</ele>
        <time>2011-09-14T13:22:13Z</time>
      </trkpt>
      <trkpt lat="43.13483" lon="2.99413">
        <ele>-11.34</ele>
        <time>2011-09-14T13:22:17Z</time>
      </trkpt>
      <trkpt lat="43.13611" lon="2.99415">
        <ele>-7.033</ele>
        <time>2011-09-14T13:22:30Z</time>
      </trkpt>
      <trkpt lat="43.13632" lon="2.99414">
        <ele>-5.006</ele>
        <time>2011-09-14T13:22:32Z</time>
      </trkpt>
      <trkpt lat="43.13683" lon="2.99415">
        <ele>-2.655</ele>
        <time>2011-09-14T13:22:37Z</time>
      </trkpt>
      <trkpt lat="43.13716" lon="2.99429">
        <ele>-5.031</ele>
        <time>2011-09-14T13:22:41Z</time>
      </trkpt>
      <trkpt lat="43.13772" lon="2.99469">
        <ele>-0.861</ele>
        <time>2011-09-14T13:22:50Z</time>
      </trkpt>
      <trkpt lat="43.13843" lon="2.99529">
        <ele>-1.981</ele>
        <time>2011-09-14T13:23:01Z</time>
      </trkpt>
      <trkpt lat="43.13898" lon="2.99582">
        <ele>-4.412</ele>
        <time>2011-09-14T13:23:08Z</time>
      </trkpt>
      <trkpt lat="43.13922" lon="2.99599">
        <ele>-5.027</ele>
        <time>2011-09-14T13:23:11Z</time>
      </trkpt>
      <trkpt lat="43.1396" lon="2.99632">
        <ele>-5.046</ele>
        <time>2011-09-14T13:23:16Z</time>
      </trkpt>
      <trkpt lat="43.14045" lon="2.99699">
        <ele>-3.628</ele>
        <time>2011-09-14T13:23:28Z</time>
      </trkpt>
      <trkpt lat="43.14059" lon="2.99712">
        <ele>-3.872</ele>
        <time>2011-09-14T13:23:30Z</time>
      </trkpt>
      <trkpt lat="43.14125" lon="2.99787">
        <ele>-4.935</ele>
        <time>2011-09-14T13:23:39Z</time>
      </trkpt>
      <trkpt lat="43.14167" lon="2.9986">
        <ele>-0.419</ele>
        <time>2011-09-14T13:23:46Z</time>
      </trkpt>
      <trkpt lat="43.1422" lon="2.99921">
        <ele>-2.494</ele>
        <time>2011-09-14T13:23:54Z</time>
      </trkpt>
      <trkpt lat="43.14233" lon="2.99924">
        <ele>-2.331</ele>
        <time>2011-09-14T13:24:02Z</time>
      </trkpt>
      <trkpt lat="43.14232" lon="2.99923">
        <ele>-2.209</ele>
        <time>2011-09-14T13:24:09Z</time>
      </trkpt>
      <trkpt lat="43.1419" lon="2.99901">
        <ele>-4.477</ele>
        <time>2011-09-14T13:24:23Z</time>
      </trkpt>
      <trkpt lat="43.14156" lon="2.99894">
        <ele>-1.723</ele>
        <time>2011-09-14T13:24:34Z</time>
      </trkpt>
      <trkpt lat="43.14115" lon="2.99886">
        <ele>-2.699</ele>
        <time>2011-09-14T13:24:41Z</time>
      </trkpt>
      <trkpt lat="43.14076" lon="2.99871">
        <ele>-2.655</ele>
        <time>2011-09-14T13:24:46Z</time>
      </trkpt>
      <trkpt lat="43.14044" lon="2.99845">
        <ele>-2.621</ele>
        <time>2011-09-14T13:24:50Z</time>
      </trkpt>
      <trkpt lat="43.13956" lon="2.99754">
        <ele>-3.965</ele>
        <time>2011-09-14T13:25:02Z</time>
      </trkpt>
      <trkpt lat="43.13862" lon="2.99683">
        <ele>-5.807</ele>
        <time>2011-09-14T13:25:14Z</time>
      </trkpt>
      <trkpt lat="43.13789" lon="2.99635">
        <ele>-3.622</ele>
        <time>2011-09-14T13:25:23Z</time>
      </trkpt>
      <trkpt lat="43.13684" lon="2.99589">
        <ele>-3.314</ele>
        <time>2011-09-14T13:25:36Z</time>
      </trkpt>
      <trkpt lat="43.13677" lon="2.99586">
        <ele>-3.563</ele>
        <time>2011-09-14T13:25:37Z</time>
      </trkpt>
      <trkpt lat="43.13651" lon="2.99583">
        <ele>-4.23</ele>
        <time>2011-09-14T13:25:40Z</time>
      </trkpt>
      <trkpt lat="43.13539" lon="2.99524">
        <ele>-2.832</ele>
        <time>2011-09-14T13:25:53Z</time>
      </trkpt>
      <trkpt lat="43.13499" lon="2.99497">
        <ele>-3.253</ele>
        <time>2011-09-14T13:25:58Z</time>
      </trkpt>
      <trkpt lat="43.13389" lon="2.99444">
        <ele>-4.806</ele>
        <time>2011-09-14T13:26:10Z</time>
      </trkpt>
      <trkpt lat="43.13333" lon="2.99402">
        <ele>-2.799</ele>
        <time>2011-09-14T13:26:17Z</time>
      </trkpt>
      <trkpt lat="43.13236" lon="2.99367">
        <ele>-2.727</ele>
        <time>2011-09-14T13:26:28Z</time>
      </trkpt>
      <trkpt lat="43.13147" lon="2.99341">
        <ele>-5.501</ele>
        <time>2011-09-14T13:26:38Z</time>
      </trkpt>
      <trkpt lat="43.13129" lon="2.99364">
        <ele>-6.073</ele>
        <time>2011-09-14T13:26:43Z</time>
      </trkpt>
      <trkpt lat="43.13135" lon="2.99368">
        <ele>-3.851</ele>
        <time>2011-09-14T13:26:46Z</time>
      </trkpt>
      <trkpt lat="43.13172" lon="2.99398">
        <ele>-4.578</ele>
        <time>2011-09-14T13:26:57Z</time>
      </trkpt>
      <trkpt lat="43.13186" lon="2.99411">
        <ele>-1.133</ele>
        <time>2011-09-14T13:27:04Z</time>
      </trkpt>
      <trkpt lat="43.13201" lon="2.99412">
        <ele>-1.737</ele>
        <time>2011-09-14T13:27:11Z</time>
      </trkpt>
      <trkpt lat="43.13227" lon="2.99431">
        <ele>-1.534</ele>
        <time>2011-09-14T13:27:16Z</time>
      </trkpt>
      <trkpt lat="43.13241" lon="2.99436">
        <ele>-1.963</ele>
        <time>2011-09-14T13:27:18Z</time>
      </trkpt>
      <trkpt lat="43.13258" lon="2.99438">
        <ele>-2.766</ele>
        <time>2011-09-14T13:27:20Z</time>
      </trkpt>
      <trkpt lat="43.13349" lon="2.99418">
        <ele>-1.937</ele>
        <time>2011-09-14T13:27:30Z</time>
      </trkpt>
      <trkpt lat="43.13358" lon="2.99415">
        <ele>-1.805</ele>
        <time>2011-09-14T13:27:31Z</time>
      </trkpt>
      <trkpt lat="43.13424" lon="2.99415">
        <ele>-2.293</ele>
        <time>2011-09-14T13:27:38Z</time>
      </trkpt>
      <trkpt lat="43.13536" lon="2.99438">
        <ele>-2.464</ele>
        <time>2011-09-14T13:27:49Z</time>
      </trkpt>
      <trkpt lat="43.13619" lon="2.99437">
        <ele>-2.459</ele>
        <time>2011-09-14T13:27:57Z</time>
      </trkpt>
      <trkpt lat="43.13748" lon="2.99473">
        <ele>-1.45</ele>
        <time>2011-09-14T13:28:11Z</time>
      </trkpt>
      <trkpt lat="43.13868" lon="2.99528">
        <ele>-1.184</ele>
        <time>2011-09-14T13:28:25Z</time>
      </trkpt>
      <trkpt lat="43.13979" lon="2.99569">
        <ele>-0.64</ele>
        <time>2011-09-14T13:28:38Z</time>
      </trkpt>
      <trkpt lat="43.14095" lon="2.99615">
        <ele>-1.409</ele>
        <time>2011-09-14T13:28:52Z</time>
      </trkpt>
      <trkpt lat="43.1419" lon="2.99659">
        <ele>1.589</ele>
        <time>2011-09-14T13:29:05Z</time>
      </trkpt>
      <trkpt lat="43.14269" lon="2.99709">
        <ele>1.684</ele>
        <time>2011-09-14T13:29:17Z</time>
      </trkpt>
      <trkpt lat="43.14313" lon="2.99738">
        <ele>1.306</ele>
        <time>2011-09-14T13:29:27Z</time>
      </trkpt>
      <trkpt lat="43.14335" lon="2.99741">
        <ele>-3.631</ele>
        <time>2011-09-14T13:29:40Z</time>
      </trkpt>
      <trkpt lat="43.14335" lon="2.99738">
        <ele>-4.553</ele>
        <time>2011-09-14T13:30:17Z</time>
      </trkpt>
      <trkpt lat="43.14329" lon="2.99731">
        <ele>-4.453</ele>
        <time>2011-09-14T13:30:37Z</time>
      </trkpt>
      <trkpt lat="43.14336" lon="2.99722">
        <ele>-4.322</ele>
        <time>2011-09-14T13:30:58Z</time>
      </trkpt>
      <trkpt lat="43.1433" lon="2.99723">
        <ele>-4.329</ele>
        <time>2011-09-14T13:31:06Z</time>
      </trkpt>
      <trkpt lat="43.14319" lon="2.99726">
        <ele>-4.19</ele>
        <time>2011-09-14T13:31:10Z</time>
      </trkpt>
      <trkpt lat="43.14246" lon="2.99727">
        <ele>-6.262</ele>
        <time>2011-09-14T13:31:25Z</time>
      </trkpt>
      <trkpt lat="43.14231" lon="2.99727">
        <ele>-6.337</ele>
        <time>2011-09-14T13:31:31Z</time>
      </trkpt>
      <trkpt lat="43.14219" lon="2.9973">
        <ele>-6.584</ele>
        <time>2011-09-14T13:31:34Z</time>
      </trkpt>
      <trkpt lat="43.14181" lon="2.99728">
        <ele>-5.238</ele>
        <time>2011-09-14T13:31:39Z</time>
      </trkpt>
      <trkpt lat="43.14145" lon="2.99739">
        <ele>-3.68</ele>
        <time>2011-09-14T13:31:43Z</time>
      </trkpt>
      <trkpt lat="43.14018" lon="2.99731">
        <ele>-6.467</ele>
        <time>2011-09-14T13:31:57Z</time>
      </trkpt>
      <trkpt lat="43.13962" lon="2.99714">
        <ele>-4.733</ele>
        <time>2011-09-14T13:32:03Z</time>
      </trkpt>
      <trkpt lat="43.13908" lon="2.99689">
        <ele>-6.098</ele>
        <time>2011-09-14T13:32:09Z</time>
      </trkpt>
      <trkpt lat="43.1384" lon="2.997">
        <ele>-6.359</ele>
        <time>2011-09-14T13:32:15Z</time>
      </trkpt>
      <trkpt lat="43.13709" lon="2.99752">
        <ele>-2.855</ele>
        <time>2011-09-14T13:32:26Z</time>
      </trkpt>
      <trkpt lat="43.13629" lon="2.99769">
        <ele>-1.372</ele>
        <time>2011-09-14T13:32:33Z</time>
      </trkpt>
      <trkpt lat="43.13518" lon="2.99748">
        <ele>-4.172</ele>
        <time>2011-09-14T13:32:44Z</time>
      </trkpt>
      <trkpt lat="43.13418" lon="2.99716">
        <ele>-0.96</ele>
        <time>2011-09-14T13:32:54Z</time>
      </trkpt>
      <trkpt lat="43.13277" lon="2.99624">
        <ele>-4.01</ele>
        <time>2011-09-14T13:33:09Z</time>
      </trkpt>
      <trkpt lat="43.13183" lon="2.99576">
        <ele>-6.756</ele>
        <time>2011-09-14T13:33:19Z</time>
      </trkpt>
      <trkpt lat="43.13156" lon="2.99569">
        <ele>-7.826</ele>
        <time>2011-09-14T13:33:22Z</time>
      </trkpt>
      <trkpt lat="43.13048" lon="2.99534">
        <ele>-7.146</ele>
        <time>2011-09-14T13:33:35Z</time>
      </trkpt>
      <trkpt lat="43.13012" lon="2.99531">
        <ele>-5.575</ele>
        <time>2011-09-14T13:33:40Z</time>
      </trkpt>
      <trkpt lat="43.12986" lon="2.99563">
        <ele>-6.205</ele>
        <time>2011-09-14T13:33:46Z</time>
      </trkpt>
      <trkpt lat="43.12992" lon="2.99567">
        <ele>-6.28</ele>
        <time>2011-09-14T13:33:50Z</time>
      </trkpt>
      <trkpt lat="43.13019" lon="2.99582">
        <ele>-3.234</ele>
        <time>2011-09-14T13:34:02Z</time>
      </trkpt>
      <trkpt lat="43.13053" lon="2.99607">
        <ele>-1.587</ele>
        <time>2011-09-14T13:34:15Z</time>
      </trkpt>
      <trkpt lat="43.13079" lon="2.99625">
        <ele>-0.471</ele>
        <time>2011-09-14T13:34:30Z</time>
      </trkpt>
      <trkpt lat="43.13106" lon="2.99652">
        <ele>-5.44</ele>
        <time>2011-09-14T13:34:41Z</time>
      </trkpt>
      <trkpt lat="43.13118" lon="2.99666">
        <ele>-5.802</ele>
        <time>2011-09-14T13:34:44Z</time>
      </trkpt>
      <trkpt lat="43.13137" lon="2.99682">
        <ele>-5.506</ele>
        <time>2011-09-14T13:34:47Z</time>
      </trkpt>
      <trkpt lat="43.13186" lon="2.99705">
        <ele>-4.127</ele>
        <time>2011-09-14T13:34:53Z</time>
      </trkpt>
      <trkpt lat="43.13237" lon="2.99718">
        <ele>-4.209</ele>
        <time>2011-09-14T13:34:59Z</time>
      </trkpt>
      <trkpt lat="43.13261" lon="2.99727">
        <ele>-4.908</ele>
        <time>2011-09-14T13:35:02Z</time>
      </trkpt>
      <trkpt lat="43.1333" lon="2.99778">
        <ele>-4.156</ele>
        <time>2011-09-14T13:35:13Z</time>
      </trkpt>
      <trkpt lat="43.1337" lon="2.99813">
        <ele>-4.28</ele>
        <time>2011-09-14T13:35:21Z</time>
      </trkpt>
      <trkpt lat="43.13405" lon="2.99851">
        <ele>-4.642</ele>
        <time>2011-09-14T13:35:28Z</time>
      </trkpt>
      <trkpt lat="43.13487" lon="2.99904">
        <ele>-4.953</ele>
        <time>2011-09-14T13:35:39Z</time>
      </trkpt>
      <trkpt lat="43.13561" lon="2.99949">
        <ele>-1.201</ele>
        <time>2011-09-14T13:35:49Z</time>
      </trkpt>
      <trkpt lat="43.13634" lon="3.00012">
        <ele>-0.679</ele>
        <time>2011-09-14T13:36:00Z</time>
      </trkpt>
      <trkpt lat="43.13685" lon="3.00057">
        <ele>-0.632</ele>
        <time>2011-09-14T13:36:10Z</time>
      </trkpt>
      <trkpt lat="43.1371" lon="3.00074">
        <ele>-2.11</ele>
        <time>2011-09-14T13:36:25Z</time>
      </trkpt>
      <trkpt lat="43.13745" lon="3.00101">
        <ele>-0.256</ele>
        <time>2011-09-14T13:36:43Z</time>
      </trkpt>
      <trkpt lat="43.13777" lon="3.00125">
        <ele>0.04</ele>
        <time>2011-09-14T13:36:58Z</time>
      </trkpt>
      <trkpt lat="43.13792" lon="3.00144">
        <ele>2.127</ele>
        <time>2011-09-14T13:37:04Z</time>
      </trkpt>
      <trkpt lat="43.13807" lon="3.00162">
        <ele>-0.577</ele>
        <time>2011-09-14T13:37:08Z</time>
      </trkpt>
      <trkpt lat="43.13886" lon="3.00205">
        <ele>-1.638</ele>
        <time>2011-09-14T13:37:19Z</time>
      </trkpt>
      <trkpt lat="43.13903" lon="3.00213">
        <ele>-1.004</ele>
        <time>2011-09-14T13:37:21Z</time>
      </trkpt>
      <trkpt lat="43.13946" lon="3.00217">
        <ele>-1.435</ele>
        <time>2011-09-14T13:37:26Z</time>
      </trkpt>
      <trkpt lat="43.14026" lon="3.00263">
        <ele>-2.031</ele>
        <time>2011-09-14T13:37:36Z</time>
      </trkpt>
      <trkpt lat="43.1406" lon="3.00281">
        <ele>-2.769</ele>
        <time>2011-09-14T13:37:40Z</time>
      </trkpt>
      <trkpt lat="43.14094" lon="3.00295">
        <ele>-3.466</ele>
        <time>2011-09-14T13:37:44Z</time>
      </trkpt>
      <trkpt lat="43.14139" lon="3.00363">
        <ele>-4.677</ele>
        <time>2011-09-14T13:37:51Z</time>
      </trkpt>
      <trkpt lat="43.14141" lon="3.00424">
        <ele>-3.509</ele>
        <time>2011-09-14T13:37:56Z</time>
      </trkpt>
      <trkpt lat="43.14135" lon="3.00424">
        <ele>-2.999</ele>
        <time>2011-09-14T13:37:58Z</time>
      </trkpt>
      <trkpt lat="43.14124" lon="3.00417">
        <ele>-2.933</ele>
        <time>2011-09-14T13:38:03Z</time>
      </trkpt>
      <trkpt lat="43.141" lon="3.00414">
        <ele>-0.603</ele>
        <time>2011-09-14T13:38:07Z</time>
      </trkpt>
      <trkpt lat="43.1402" lon="3.00358">
        <ele>0.767</ele>
        <time>2011-09-14T13:38:17Z</time>
      </trkpt>
      <trkpt lat="43.13913" lon="3.00282">
        <ele>-1.427</ele>
        <time>2011-09-14T13:38:29Z</time>
      </trkpt>
      <trkpt lat="43.13824" lon="3.00236">
        <ele>-4.421</ele>
        <time>2011-09-14T13:38:40Z</time>
      </trkpt>
      <trkpt lat="43.13713" lon="3.00193">
        <ele>-3.368</ele>
        <time>2011-09-14T13:38:53Z</time>
      </trkpt>
      <trkpt lat="43.13609" lon="3.00159">
        <ele>-3.273</ele>
        <time>2011-09-14T13:39:05Z</time>
      </trkpt>
      <trkpt lat="43.13559" lon="3.0015">
        <ele>-2.303</ele>
        <time>2011-09-14T13:39:11Z</time>
      </trkpt>
      <trkpt lat="43.13428" lon="3.00115">
        <ele>-3.167</ele>
        <time>2011-09-14T13:39:27Z</time>
      </trkpt>
      <trkpt lat="43.1333" lon="3.00079">
        <ele>-5.418</ele>
        <time>2011-09-14T13:39:38Z</time>
      </trkpt>
      <trkpt lat="43.13286" lon="3.00058">
        <ele>-6.124</ele>
        <time>2011-09-14T13:39:43Z</time>
      </trkpt>
      <trkpt lat="43.13243" lon="3.00023">
        <ele>-7.03</ele>
        <time>2011-09-14T13:39:48Z</time>
      </trkpt>
      <trkpt lat="43.13186" lon="2.99999">
        <ele>-7.242</ele>
        <time>2011-09-14T13:39:55Z</time>
      </trkpt>
      <trkpt lat="43.13148" lon="2.99994">
        <ele>-7.029</ele>
        <time>2011-09-14T13:40:01Z</time>
      </trkpt>
      <trkpt lat="43.13127" lon="2.99994">
        <ele>-7.759</ele>
        <time>2011-09-14T13:40:05Z</time>
      </trkpt>
      <trkpt lat="43.13103" lon="2.99983">
        <ele>-7.474</ele>
        <time>2011-09-14T13:40:17Z</time>
      </trkpt>
      <trkpt lat="43.13048" lon="2.99975">
        <ele>-5.636</ele>
        <time>2011-09-14T13:40:30Z</time>
      </trkpt>
      <trkpt lat="43.13004" lon="2.99966">
        <ele>-5.269</ele>
        <time>2011-09-14T13:40:36Z</time>
      </trkpt>
      <trkpt lat="43.12972" lon="2.99951">
        <ele>-5.95</ele>
        <time>2011-09-14T13:40:40Z</time>
      </trkpt>
      <trkpt lat="43.12941" lon="2.99929">
        <ele>-4.906</ele>
        <time>2011-09-14T13:40:44Z</time>
      </trkpt>
      <trkpt lat="43.12886" lon="2.99885">
        <ele>-4.114</ele>
        <time>2011-09-14T13:40:51Z</time>
      </trkpt>
      <trkpt lat="43.12861" lon="2.9987">
        <ele>-4.81</ele>
        <time>2011-09-14T13:40:54Z</time>
      </trkpt>
      <trkpt lat="43.12765" lon="2.99804">
        <ele>-5.644</ele>
        <time>2011-09-14T13:41:06Z</time>
      </trkpt>
      <trkpt lat="43.12709" lon="2.99767">
        <ele>-5.15</ele>
        <time>2011-09-14T13:41:13Z</time>
      </trkpt>
      <trkpt lat="43.12617" lon="2.99694">
        <ele>-3.112</ele>
        <time>2011-09-14T13:41:26Z</time>
      </trkpt>
      <trkpt lat="43.12611" lon="2.99689">
        <ele>-2.524</ele>
        <time>2011-09-14T13:41:27Z</time>
      </trkpt>
      <trkpt lat="43.12607" lon="2.99674">
        <ele>-3.36</ele>
        <time>2011-09-14T13:41:34Z</time>
      </trkpt>
      <trkpt lat="43.12609" lon="2.99674">
        <ele>-3.608</ele>
        <time>2011-09-14T13:41:36Z</time>
      </trkpt>
      <trkpt lat="43.1262" lon="2.99679">
        <ele>-4.008</ele>
        <time>2011-09-14T13:41:40Z</time>
      </trkpt>
      <trkpt lat="43.12649" lon="2.99702">
        <ele>-2.453</ele>
        <time>2011-09-14T13:41:50Z</time>
      </trkpt>
      <trkpt lat="43.12667" lon="2.99705">
        <ele>-5.064</ele>
        <time>2011-09-14T13:42:03Z</time>
      </trkpt>
      <trkpt lat="43.12688" lon="2.99715">
        <ele>-4.121</ele>
        <time>2011-09-14T13:42:15Z</time>
      </trkpt>
      <trkpt lat="43.12725" lon="2.99736">
        <ele>-4.908</ele>
        <time>2011-09-14T13:42:30Z</time>
      </trkpt>
      <trkpt lat="43.12748" lon="2.99756">
        <ele>-2.592</ele>
        <time>2011-09-14T13:42:35Z</time>
      </trkpt>
      <trkpt lat="43.1276" lon="2.99764">
        <ele>-2.731</ele>
        <time>2011-09-14T13:42:37Z</time>
      </trkpt>
      <trkpt lat="43.12805" lon="2.99771">
        <ele>-3.091</ele>
        <time>2011-09-14T13:42:43Z</time>
      </trkpt>
      <trkpt lat="43.12842" lon="2.99784">
        <ele>-1.712</ele>
        <time>2011-09-14T13:42:48Z</time>
      </trkpt>
      <trkpt lat="43.12857" lon="2.99786">
        <ele>-0.771</ele>
        <time>2011-09-14T13:42:50Z</time>
      </trkpt>
      <trkpt lat="43.12872" lon="2.99781">
        <ele>-2.303</ele>
        <time>2011-09-14T13:42:54Z</time>
      </trkpt>
      <trkpt lat="43.12879" lon="2.99783">
        <ele>-5.335</ele>
        <time>2011-09-14T13:43:04Z</time>
      </trkpt>
      <trkpt lat="43.12882" lon="2.99785">
        <ele>-6.04</ele>
        <time>2011-09-14T13:43:07Z</time>
      </trkpt>
      <trkpt lat="43.12886" lon="2.99784">
        <ele>-6.172</ele>
        <time>2011-09-14T13:43:09Z</time>
      </trkpt>
      <trkpt lat="43.12897" lon="2.99789">
        <ele>-4.974</ele>
        <time>2011-09-14T13:43:15Z</time>
      </trkpt>
      <trkpt lat="43.12934" lon="2.99813">
        <ele>-6.369</ele>
        <time>2011-09-14T13:43:30Z</time>
      </trkpt>
      <trkpt lat="43.12959" lon="2.99817">
        <ele>-5.769</ele>
        <time>2011-09-14T13:43:43Z</time>
      </trkpt>
      <trkpt lat="43.12979" lon="2.99817">
        <ele>-9.164</ele>
        <time>2011-09-14T13:44:02Z</time>
      </trkpt>
      <trkpt lat="43.13005" lon="2.99829">
        <ele>-10.209</ele>
        <time>2011-09-14T13:44:13Z</time>
      </trkpt>
      <trkpt lat="43.13041" lon="2.99849">
        <ele>-10.488</ele>
        <time>2011-09-14T13:44:28Z</time>
      </trkpt>
      <trkpt lat="43.13057" lon="2.99857">
        <ele>-11.149</ele>
        <time>2011-09-14T13:44:34Z</time>
      </trkpt>
      <trkpt lat="43.13093" lon="2.9987">
        <ele>-4.116</ele>
        <time>2011-09-14T13:44:47Z</time>
      </trkpt>
      <trkpt lat="43.131" lon="2.99866">
        <ele>-4.081</ele>
        <time>2011-09-14T13:44:56Z</time>
      </trkpt>
      <trkpt lat="43.13118" lon="2.99863">
        <ele>-4.737</ele>
        <time>2011-09-14T13:45:05Z</time>
      </trkpt>
      <trkpt lat="43.13159" lon="2.9988">
        <ele>-6.766</ele>
        <time>2011-09-14T13:45:16Z</time>
      </trkpt>
      <trkpt lat="43.13197" lon="2.99888">
        <ele>-5.62</ele>
        <time>2011-09-14T13:45:21Z</time>
      </trkpt>
      <trkpt lat="43.13293" lon="2.9994">
        <ele>-4.273</ele>
        <time>2011-09-14T13:45:34Z</time>
      </trkpt>
      <trkpt lat="43.13378" lon="2.99978">
        <ele>-4.933</ele>
        <time>2011-09-14T13:45:45Z</time>
      </trkpt>
      <trkpt lat="43.13471" lon="3.00007">
        <ele>-3.64</ele>
        <time>2011-09-14T13:45:57Z</time>
      </trkpt>
      <trkpt lat="43.13519" lon="3.00045">
        <ele>-6.209</ele>
        <time>2011-09-14T13:46:05Z</time>
      </trkpt>
      <trkpt lat="43.13543" lon="3.00059">
        <ele>-6.811</ele>
        <time>2011-09-14T13:46:09Z</time>
      </trkpt>
      <trkpt lat="43.13561" lon="3.00074">
        <ele>-7.413</ele>
        <time>2011-09-14T13:46:12Z</time>
      </trkpt>
      <trkpt lat="43.13653" lon="3.00139">
        <ele>-4.576</ele>
        <time>2011-09-14T13:46:26Z</time>
      </trkpt>
      <trkpt lat="43.13682" lon="3.00161">
        <ele>-3.212</ele>
        <time>2011-09-14T13:46:30Z</time>
      </trkpt>
      <trkpt lat="43.13807" lon="3.00242">
        <ele>-7.403</ele>
        <time>2011-09-14T13:46:47Z</time>
      </trkpt>
      <trkpt lat="43.13927" lon="3.00297">
        <ele>-3.691</ele>
        <time>2011-09-14T13:47:02Z</time>
      </trkpt>
      <trkpt lat="43.14033" lon="3.00318">
        <ele>-5.731</ele>
        <time>2011-09-14T13:47:15Z</time>
      </trkpt>
      <trkpt lat="43.14069" lon="3.0032">
        <ele>-4.641</ele>
        <time>2011-09-14T13:47:19Z</time>
      </trkpt>
      <trkpt lat="43.14146" lon="3.00322">
        <ele>-4.194</ele>
        <time>2011-09-14T13:47:28Z</time>
      </trkpt>
      <trkpt lat="43.14235" lon="3.00298">
        <ele>-8.688</ele>
        <time>2011-09-14T13:47:38Z</time>
      </trkpt>
      <trkpt lat="43.14249" lon="3.00276">
        <ele>-7.146</ele>
        <time>2011-09-14T13:47:44Z</time>
      </trkpt>
      <trkpt lat="43.14247" lon="3.00277">
        <ele>-7.343</ele>
        <time>2011-09-14T13:47:45Z</time>
      </trkpt>
      <trkpt lat="43.14208" lon="3.00274">
        <ele>-1.135</ele>
        <time>2011-09-14T13:47:56Z</time>
      </trkpt>
      <trkpt lat="43.14173" lon="3.00262">
        <ele>-1.286</ele>
        <time>2011-09-14T13:48:00Z</time>
      </trkpt>
      <trkpt lat="43.14066" lon="3.00205">
        <ele>0.974</ele>
        <time>2011-09-14T13:48:13Z</time>
      </trkpt>
      <trkpt lat="43.13987" lon="3.00179">
        <ele>-1.11</ele>
        <time>2011-09-14T13:48:23Z</time>
      </trkpt>
      <trkpt lat="43.13962" lon="3.00174">
        <ele>-1.315</ele>
        <time>2011-09-14T13:48:26Z</time>
      </trkpt>
      <trkpt lat="43.13849" lon="3.0012">
        <ele>-2.545</ele>
        <time>2011-09-14T13:48:40Z</time>
      </trkpt>
      <trkpt lat="43.13822" lon="3.00106">
        <ele>-3.5</ele>
        <time>2011-09-14T13:48:43Z</time>
      </trkpt>
      <trkpt lat="43.13754" lon="3.00046">
        <ele>-8.426</ele>
        <time>2011-09-14T13:48:51Z</time>
      </trkpt>
      <trkpt lat="43.137" lon="3.00022">
        <ele>-5.687</ele>
        <time>2011-09-14T13:48:57Z</time>
      </trkpt>
      <trkpt lat="43.13645" lon="2.99976">
        <ele>-5.533</ele>
        <time>2011-09-14T13:49:03Z</time>
      </trkpt>
      <trkpt lat="43.13578" lon="2.99916">
        <ele>-2.434</ele>
        <time>2011-09-14T13:49:11Z</time>
      </trkpt>
      <trkpt lat="43.13456" lon="2.99817">
        <ele>-1.733</ele>
        <time>2011-09-14T13:49:26Z</time>
      </trkpt>
      <trkpt lat="43.13439" lon="2.99803">
        <ele>-2.441</ele>
        <time>2011-09-14T13:49:28Z</time>
      </trkpt>
      <trkpt lat="43.13392" lon="2.9976">
        <ele>-2.09</ele>
        <time>2011-09-14T13:49:34Z</time>
      </trkpt>
      <trkpt lat="43.13298" lon="2.99633">
        <ele>-3.065</ele>
        <time>2011-09-14T13:49:47Z</time>
      </trkpt>
      <trkpt lat="43.13244" lon="2.99549">
        <ele>-1.657</ele>
        <time>2011-09-14T13:49:55Z</time>
      </trkpt>
      <trkpt lat="43.13189" lon="2.99512">
        <ele>-0.614</ele>
        <time>2011-09-14T13:50:03Z</time>
      </trkpt>
      <trkpt lat="43.13166" lon="2.99507">
        <ele>-0.796</ele>
        <time>2011-09-14T13:50:07Z</time>
      </trkpt>
      <trkpt lat="43.13137" lon="2.99513">
        <ele>-2.494</ele>
        <time>2011-09-14T13:50:12Z</time>
      </trkpt>
      <trkpt lat="43.13128" lon="2.99543">
        <ele>-6.699</ele>
        <time>2011-09-14T13:50:18Z</time>
      </trkpt>
      <trkpt lat="43.13173" lon="2.99586">
        <ele>-8.136</ele>
        <time>2011-09-14T13:50:28Z</time>
      </trkpt>
      <trkpt lat="43.13232" lon="2.99599">
        <ele>-9.219</ele>
        <time>2011-09-14T13:50:36Z</time>
      </trkpt>
      <trkpt lat="43.1335" lon="2.99648">
        <ele>-6.948</ele>
        <time>2011-09-14T13:50:51Z</time>
      </trkpt>
      <trkpt lat="43.13377" lon="2.99658">
        <ele>-6.105</ele>
        <time>2011-09-14T13:50:54Z</time>
      </trkpt>
      <trkpt lat="43.13492" lon="2.99718">
        <ele>-9.807</ele>
        <time>2011-09-14T13:51:08Z</time>
      </trkpt>
      <trkpt lat="43.13635" lon="2.99772">
        <ele>-9.868</ele>
        <time>2011-09-14T13:51:23Z</time>
      </trkpt>
      <trkpt lat="43.13777" lon="2.99838">
        <ele>-4.566</ele>
        <time>2011-09-14T13:51:38Z</time>
      </trkpt>
      <trkpt lat="43.13892" lon="2.99895">
        <ele>-3.356</ele>
        <time>2011-09-14T13:51:49Z</time>
      </trkpt>
      <trkpt lat="43.14019" lon="2.99952">
        <ele>-6.051</ele>
        <time>2011-09-14T13:52:00Z</time>
      </trkpt>
      <trkpt lat="43.14169" lon="3.00038">
        <ele>-5.175</ele>
        <time>2011-09-14T13:52:15Z</time>
      </trkpt>
      <trkpt lat="43.14232" lon="3.00079">
        <ele>-2.661</ele>
        <time>2011-09-14T13:52:21Z</time>
      </trkpt>
      <trkpt lat="43.14247" lon="3.00136">
        <ele>-3.989</ele>
        <time>2011-09-14T13:52:26Z</time>
      </trkpt>
      <trkpt lat="43.14237" lon="3.00138">
        <ele>-5.333</ele>
        <time>2011-09-14T13:52:29Z</time>
      </trkpt>
      <trkpt lat="43.14183" lon="3.00117">
        <ele>-6.15</ele>
        <time>2011-09-14T13:52:42Z</time>
      </trkpt>
      <trkpt lat="43.14112" lon="3.00058">
        <ele>-5.861</ele>
        <time>2011-09-14T13:52:51Z</time>
      </trkpt>
      <trkpt lat="43.14013" lon="2.99964">
        <ele>-1.763</ele>
        <time>2011-09-14T13:53:03Z</time>
      </trkpt>
      <trkpt lat="43.14005" lon="2.99957">
        <ele>-1.104</ele>
        <time>2011-09-14T13:53:04Z</time>
      </trkpt>
      <trkpt lat="43.13892" lon="2.99884">
        <ele>-1.584</ele>
        <time>2011-09-14T13:53:18Z</time>
      </trkpt>
      <trkpt lat="43.13786" lon="2.99816">
        <ele>-0.58</ele>
        <time>2011-09-14T13:53:31Z</time>
      </trkpt>
      <trkpt lat="43.13684" lon="2.99743">
        <ele>-4.243</ele>
        <time>2011-09-14T13:53:44Z</time>
      </trkpt>
      <trkpt lat="43.13678" lon="2.99737">
        <ele>-4.136</ele>
        <time>2011-09-14T13:53:45Z</time>
      </trkpt>
      <trkpt lat="43.13646" lon="2.99713">
        <ele>-2.11</ele>
        <time>2011-09-14T13:53:50Z</time>
      </trkpt>
      <trkpt lat="43.13557" lon="2.99668">
        <ele>0.747</ele>
        <time>2011-09-14T13:54:02Z</time>
      </trkpt>
      <trkpt lat="43.13458" lon="2.99631">
        <ele>1.36</ele>
        <time>2011-09-14T13:54:14Z</time>
      </trkpt>
      <trkpt lat="43.13364" lon="2.99578">
        <ele>-0.097</ele>
        <time>2011-09-14T13:54:25Z</time>
      </trkpt>
      <trkpt lat="43.13346" lon="2.9957">
        <ele>2.174</ele>
        <time>2011-09-14T13:54:27Z</time>
      </trkpt>
      <trkpt lat="43.1327" lon="2.99524">
        <ele>0.63</ele>
        <time>2011-09-14T13:54:36Z</time>
      </trkpt>
      <trkpt lat="43.13246" lon="2.99509">
        <ele>-0.077</ele>
        <time>2011-09-14T13:54:39Z</time>
      </trkpt>
      <trkpt lat="43.13204" lon="2.99522">
        <ele>-2.094</ele>
        <time>2011-09-14T13:54:45Z</time>
      </trkpt>
      <trkpt lat="43.1321" lon="2.99534">
        <ele>-2.982</ele>
        <time>2011-09-14T13:54:48Z</time>
      </trkpt>
      <trkpt lat="43.1324" lon="2.9956">
        <ele>-3.379</ele>
        <time>2011-09-14T13:54:54Z</time>
      </trkpt>
      <trkpt lat="43.1335" lon="2.99581">
        <ele>-6.53</ele>
        <time>2011-09-14T13:55:05Z</time>
      </trkpt>
      <trkpt lat="43.13473" lon="2.99588">
        <ele>-7.438</ele>
        <time>2011-09-14T13:55:16Z</time>
      </trkpt>
      <trkpt lat="43.13507" lon="2.99589">
        <ele>-7.673</ele>
        <time>2011-09-14T13:55:19Z</time>
      </trkpt>
      <trkpt lat="43.13622" lon="2.99621">
        <ele>-3.836</ele>
        <time>2011-09-14T13:55:31Z</time>
      </trkpt>
      <trkpt lat="43.13736" lon="2.99665">
        <ele>-5.459</ele>
        <time>2011-09-14T13:55:45Z</time>
      </trkpt>
      <trkpt lat="43.13851" lon="2.99693">
        <ele>-5.915</ele>
        <time>2011-09-14T13:55:57Z</time>
      </trkpt>
      <trkpt lat="43.1391" lon="2.99713">
        <ele>-7.755</ele>
        <time>2011-09-14T13:56:04Z</time>
      </trkpt>
      <trkpt lat="43.13968" lon="2.99744">
        <ele>-6.094</ele>
        <time>2011-09-14T13:56:13Z</time>
      </trkpt>
      <trkpt lat="43.13998" lon="2.99758">
        <ele>-6.346</ele>
        <time>2011-09-14T13:56:20Z</time>
      </trkpt>
      <trkpt lat="43.14003" lon="2.99756">
        <ele>-7.927</ele>
        <time>2011-09-14T13:56:26Z</time>
      </trkpt>
      <trkpt lat="43.14033" lon="2.99774">
        <ele>-3.741</ele>
        <time>2011-09-14T13:56:40Z</time>
      </trkpt>
      <trkpt lat="43.14088" lon="2.9982">
        <ele>-0.964</ele>
        <time>2011-09-14T13:56:49Z</time>
      </trkpt>
      <trkpt lat="43.14145" lon="2.99861">
        <ele>-2.827</ele>
        <time>2011-09-14T13:56:56Z</time>
      </trkpt>
      <trkpt lat="43.14232" lon="2.99988">
        <ele>-3.567</ele>
        <time>2011-09-14T13:57:07Z</time>
      </trkpt>
      <trkpt lat="43.14243" lon="3.00042">
        <ele>-3.616</ele>
        <time>2011-09-14T13:57:12Z</time>
      </trkpt>
      <trkpt lat="43.14254" lon="3.00046">
        <ele>-4.007</ele>
        <time>2011-09-14T13:57:17Z</time>
      </trkpt>
      <trkpt lat="43.14252" lon="3.00048">
        <ele>-5.121</ele>
        <time>2011-09-14T13:57:36Z</time>
      </trkpt>
      <trkpt lat="43.1425" lon="3.00045">
        <ele>-4.997</ele>
        <time>2011-09-14T13:57:54Z</time>
      </trkpt>
      <trkpt lat="43.14249" lon="3.00044">
        <ele>-4.947</ele>
        <time>2011-09-14T13:58:17Z</time>
      </trkpt>
      <trkpt lat="43.14227" lon="3.00043">
        <ele>-4.028</ele>
        <time>2011-09-14T13:58:24Z</time>
      </trkpt>
      <trkpt lat="43.14139" lon="3.00007">
        <ele>-2.083</ele>
        <time>2011-09-14T13:58:35Z</time>
      </trkpt>
      <trkpt lat="43.14006" lon="2.99941">
        <ele>-1.386</ele>
        <time>2011-09-14T13:58:49Z</time>
      </trkpt>
      <trkpt lat="43.13885" lon="2.99863">
        <ele>0.118</ele>
        <time>2011-09-14T13:59:03Z</time>
      </trkpt>
      <trkpt lat="43.13772" lon="2.99789">
        <ele>-4.392</ele>
        <time>2011-09-14T13:59:15Z</time>
      </trkpt>
      <trkpt lat="43.13649" lon="2.99706">
        <ele>-0.284</ele>
        <time>2011-09-14T13:59:28Z</time>
      </trkpt>
      <trkpt lat="43.13547" lon="2.99648">
        <ele>-0.057</ele>
        <time>2011-09-14T13:59:39Z</time>
      </trkpt>
      <trkpt lat="43.135" lon="2.99625">
        <ele>1.312</ele>
        <time>2011-09-14T13:59:44Z</time>
      </trkpt>
      <trkpt lat="43.13475" lon="2.99604">
        <ele>2.532</ele>
        <time>2011-09-14T13:59:47Z</time>
      </trkpt>
      <trkpt lat="43.13417" lon="2.99581">
        <ele>-0.066</ele>
        <time>2011-09-14T13:59:54Z</time>
      </trkpt>
      <trkpt lat="43.13391" lon="2.99605">
        <ele>2.195</ele>
        <time>2011-09-14T13:59:59Z</time>
      </trkpt>
      <trkpt lat="43.13395" lon="2.99609">
        <ele>1.945</ele>
        <time>2011-09-14T14:00:00Z</time>
      </trkpt>
      <trkpt lat="43.13408" lon="2.99629">
        <ele>2.784</ele>
        <time>2011-09-14T14:00:06Z</time>
      </trkpt>
      <trkpt lat="43.13414" lon="2.99639">
        <ele>3.136</ele>
        <time>2011-09-14T14:00:08Z</time>
      </trkpt>
      <trkpt lat="43.13424" lon="2.9965">
        <ele>3.987</ele>
        <time>2011-09-14T14:00:10Z</time>
      </trkpt>
      <trkpt lat="43.13442" lon="2.99664">
        <ele>4.643</ele>
        <time>2011-09-14T14:00:13Z</time>
      </trkpt>
      <trkpt lat="43.13516" lon="2.99701">
        <ele>6.852</ele>
        <time>2011-09-14T14:00:23Z</time>
      </trkpt>
      <trkpt lat="43.13534" lon="2.99725">
        <ele>8.087</ele>
        <time>2011-09-14T14:00:27Z</time>
      </trkpt>
      <trkpt lat="43.13556" lon="2.99748">
        <ele>7.28</ele>
        <time>2011-09-14T14:00:31Z</time>
      </trkpt>
      <trkpt lat="43.13633" lon="2.99809">
        <ele>8.063</ele>
        <time>2011-09-14T14:00:42Z</time>
      </trkpt>
      <trkpt lat="43.13721" lon="2.99867">
        <ele>5.748</ele>
        <time>2011-09-14T14:00:53Z</time>
      </trkpt>
      <trkpt lat="43.13817" lon="2.99909">
        <ele>0.28</ele>
        <time>2011-09-14T14:01:04Z</time>
      </trkpt>
      <trkpt lat="43.13921" lon="2.99961">
        <ele>-3.089</ele>
        <time>2011-09-14T14:01:16Z</time>
      </trkpt>
      <trkpt lat="43.14028" lon="3.00006">
        <ele>-0.185</ele>
        <time>2011-09-14T14:01:29Z</time>
      </trkpt>
      <trkpt lat="43.14115" lon="3.00056">
        <ele>0.231</ele>
        <time>2011-09-14T14:01:40Z</time>
      </trkpt>
      <trkpt lat="43.14177" lon="3.00089">
        <ele>-1.307</ele>
        <time>2011-09-14T14:01:48Z</time>
      </trkpt>
      <trkpt lat="43.14193" lon="3.0008">
        <ele>0.51</ele>
        <time>2011-09-14T14:01:55Z</time>
      </trkpt>
      <trkpt lat="43.14192" lon="3.00079">
        <ele>0.778</ele>
        <time>2011-09-14T14:01:56Z</time>
      </trkpt>
      <trkpt lat="43.14157" lon="3.00056">
        <ele>1.561</ele>
        <time>2011-09-14T14:02:07Z</time>
      </trkpt>
      <trkpt lat="43.14081" lon="2.99985">
        <ele>2.385</ele>
        <time>2011-09-14T14:02:18Z</time>
      </trkpt>
      <trkpt lat="43.14004" lon="2.99902">
        <ele>3.934</ele>
        <time>2011-09-14T14:02:29Z</time>
      </trkpt>
      <trkpt lat="43.1396" lon="2.99854">
        <ele>5.193</ele>
        <time>2011-09-14T14:02:35Z</time>
      </trkpt>
      <trkpt lat="43.1393" lon="2.99834">
        <ele>4.669</ele>
        <time>2011-09-14T14:02:39Z</time>
      </trkpt>
      <trkpt lat="43.13854" lon="2.99823">
        <ele>2.717</ele>
        <time>2011-09-14T14:02:49Z</time>
      </trkpt>
      <trkpt lat="43.13832" lon="2.99824">
        <ele>1.549</ele>
        <time>2011-09-14T14:02:52Z</time>
      </trkpt>
      <trkpt lat="43.13797" lon="2.99823">
        <ele>0.469</ele>
        <time>2011-09-14T14:02:57Z</time>
      </trkpt>
      <trkpt lat="43.13763" lon="2.99821">
        <ele>-0.578</ele>
        <time>2011-09-14T14:03:02Z</time>
      </trkpt>
      <trkpt lat="43.13665" lon="2.99793">
        <ele>-0.811</ele>
        <time>2011-09-14T14:03:15Z</time>
      </trkpt>
      <trkpt lat="43.13632" lon="2.99787">
        <ele>-0.866</ele>
        <time>2011-09-14T14:03:19Z</time>
      </trkpt>
      <trkpt lat="43.13515" lon="2.99751">
        <ele>-1.125</ele>
        <time>2011-09-14T14:03:33Z</time>
      </trkpt>
      <trkpt lat="43.13499" lon="2.99746">
        <ele>-0.562</ele>
        <time>2011-09-14T14:03:35Z</time>
      </trkpt>
      <trkpt lat="43.13465" lon="2.9974">
        <ele>-0.149</ele>
        <time>2011-09-14T14:03:39Z</time>
      </trkpt>
      <trkpt lat="43.13429" lon="2.99765">
        <ele>-1.672</ele>
        <time>2011-09-14T14:03:45Z</time>
      </trkpt>
      <trkpt lat="43.13436" lon="2.99775">
        <ele>-1.839</ele>
        <time>2011-09-14T14:03:48Z</time>
      </trkpt>
      <trkpt lat="43.13472" lon="2.998">
        <ele>-2.303</ele>
        <time>2011-09-14T14:03:56Z</time>
      </trkpt>
      <trkpt lat="43.13484" lon="2.99804">
        <ele>-1.448</ele>
        <time>2011-09-14T14:03:58Z</time>
      </trkpt>
      <trkpt lat="43.13599" lon="2.99815">
        <ele>-1.751</ele>
        <time>2011-09-14T14:04:11Z</time>
      </trkpt>
      <trkpt lat="43.13711" lon="2.99809">
        <ele>-3.217</ele>
        <time>2011-09-14T14:04:23Z</time>
      </trkpt>
      <trkpt lat="43.13842" lon="2.99823">
        <ele>-6.027</ele>
        <time>2011-09-14T14:04:37Z</time>
      </trkpt>
      <trkpt lat="43.13953" lon="2.99848">
        <ele>-6.64</ele>
        <time>2011-09-14T14:04:49Z</time>
      </trkpt>
      <trkpt lat="43.13975" lon="2.99857">
        <ele>-7.143</ele>
        <time>2011-09-14T14:04:52Z</time>
      </trkpt>
      <trkpt lat="43.14027" lon="2.99895">
        <ele>-5.322</ele>
        <time>2011-09-14T14:05:00Z</time>
      </trkpt>
      <trkpt lat="43.14043" lon="2.99911">
        <ele>-4.983</ele>
        <time>2011-09-14T14:05:03Z</time>
      </trkpt>
      <trkpt lat="43.14125" lon="2.99973">
        <ele>-0.149</ele>
        <time>2011-09-14T14:05:15Z</time>
      </trkpt>
      <trkpt lat="43.14158" lon="2.99991">
        <ele>-1.624</ele>
        <time>2011-09-14T14:05:19Z</time>
      </trkpt>
      <trkpt lat="43.142" lon="3.0002">
        <ele>-4.119</ele>
        <time>2011-09-14T14:05:24Z</time>
      </trkpt>
      <trkpt lat="43.14223" lon="3.00083">
        <ele>-3.01</ele>
        <time>2011-09-14T14:05:30Z</time>
      </trkpt>
      <trkpt lat="43.14215" lon="3.00088">
        <ele>-3.383</ele>
        <time>2011-09-14T14:05:35Z</time>
      </trkpt>
      <trkpt lat="43.14203" lon="3.0008">
        <ele>-2.509</ele>
        <time>2011-09-14T14:05:42Z</time>
      </trkpt>
      <trkpt lat="43.14195" lon="3.00075">
        <ele>-0.826</ele>
        <time>2011-09-14T14:05:46Z</time>
      </trkpt>
      <trkpt lat="43.14184" lon="3.00072">
        <ele>0.256</ele>
        <time>2011-09-14T14:05:49Z</time>
      </trkpt>
      <trkpt lat="43.1417" lon="3.00072">
        <ele>1.015</ele>
        <time>2011-09-14T14:05:52Z</time>
      </trkpt>
      <trkpt lat="43.14126" lon="3.00051">
        <ele>2.265</ele>
        <time>2011-09-14T14:05:58Z</time>
      </trkpt>
      <trkpt lat="43.1411" lon="3.00038">
        <ele>1.769</ele>
        <time>2011-09-14T14:06:00Z</time>
      </trkpt>
      <trkpt lat="43.1404" lon="2.99945">
        <ele>5.354</ele>
        <time>2011-09-14T14:06:10Z</time>
      </trkpt>
      <trkpt lat="43.13996" lon="2.9992">
        <ele>4.529</ele>
        <time>2011-09-14T14:06:15Z</time>
      </trkpt>
      <trkpt lat="43.13905" lon="2.99914">
        <ele>5.909</ele>
        <time>2011-09-14T14:06:28Z</time>
      </trkpt>
      <trkpt lat="43.13873" lon="2.99908">
        <ele>7.422</ele>
        <time>2011-09-14T14:06:38Z</time>
      </trkpt>
      <trkpt lat="43.13841" lon="2.99897">
        <ele>7.447</ele>
        <time>2011-09-14T14:06:53Z</time>
      </trkpt>
      <trkpt lat="43.13816" lon="2.99892">
        <ele>7.598</ele>
        <time>2011-09-14T14:07:06Z</time>
      </trkpt>
      <trkpt lat="43.138" lon="2.99891">
        <ele>7.615</ele>
        <time>2011-09-14T14:07:11Z</time>
      </trkpt>
      <trkpt lat="43.13769" lon="2.99901">
        <ele>6.002</ele>
        <time>2011-09-14T14:07:17Z</time>
      </trkpt>
      <trkpt lat="43.13749" lon="2.99901">
        <ele>5.027</ele>
        <time>2011-09-14T14:07:20Z</time>
      </trkpt>
      <trkpt lat="43.13642" lon="2.99867">
        <ele>4.895</ele>
        <time>2011-09-14T14:07:33Z</time>
      </trkpt>
      <trkpt lat="43.13536" lon="2.99815">
        <ele>2.248</ele>
        <time>2011-09-14T14:07:45Z</time>
      </trkpt>
      <trkpt lat="43.1344" lon="2.99791">
        <ele>5.084</ele>
        <time>2011-09-14T14:07:57Z</time>
      </trkpt>
      <trkpt lat="43.13371" lon="2.99769">
        <ele>4.613</ele>
        <time>2011-09-14T14:08:06Z</time>
      </trkpt>
      <trkpt lat="43.13358" lon="2.99757">
        <ele>3.613</ele>
        <time>2011-09-14T14:08:10Z</time>
      </trkpt>
      <trkpt lat="43.13363" lon="2.99754">
        <ele>4.735</ele>
        <time>2011-09-14T14:08:17Z</time>
      </trkpt>
      <trkpt lat="43.13399" lon="2.99759">
        <ele>3.371</ele>
        <time>2011-09-14T14:08:29Z</time>
      </trkpt>
      <trkpt lat="43.13434" lon="2.9977">
        <ele>1.283</ele>
        <time>2011-09-14T14:08:43Z</time>
      </trkpt>
      <trkpt lat="43.13463" lon="2.99777">
        <ele>-2.51</ele>
        <time>2011-09-14T14:08:56Z</time>
      </trkpt>
      <trkpt lat="43.13491" lon="2.99786">
        <ele>-0.444</ele>
        <time>2011-09-14T14:09:09Z</time>
      </trkpt>
      <trkpt lat="43.13516" lon="2.99791">
        <ele>4.125</ele>
        <time>2011-09-14T14:09:21Z</time>
      </trkpt>
      <trkpt lat="43.13553" lon="2.99798">
        <ele>2.632</ele>
        <time>2011-09-14T14:09:37Z</time>
      </trkpt>
      <trkpt lat="43.13586" lon="2.99801">
        <ele>1.862</ele>
        <time>2011-09-14T14:09:51Z</time>
      </trkpt>
      <trkpt lat="43.13616" lon="2.99809">
        <ele>3.316</ele>
        <time>2011-09-14T14:10:03Z</time>
      </trkpt>
      <trkpt lat="43.13623" lon="2.99812">
        <ele>4.174</ele>
        <time>2011-09-14T14:10:05Z</time>
      </trkpt>
      <trkpt lat="43.13637" lon="2.9982">
        <ele>3.852</ele>
        <time>2011-09-14T14:10:08Z</time>
      </trkpt>
      <trkpt lat="43.1366" lon="2.99829">
        <ele>3.243</ele>
        <time>2011-09-14T14:10:12Z</time>
      </trkpt>
      <trkpt lat="43.13682" lon="2.99817">
        <ele>1.723</ele>
        <time>2011-09-14T14:10:20Z</time>
      </trkpt>
    </trkseg>
  </trk>
  <trk>
    <name><![CDATA[ACTIVE LOG161240]]></name>
    <trkseg>
      <trkpt lat="43.13642" lon="2.9984">
        <ele>6.057</ele>
        <time>2011-09-14T14:12:40Z</time>
      </trkpt>
      <trkpt lat="43.13647" lon="2.99844">
        <ele>3.461</ele>
        <time>2011-09-14T14:12:42Z</time>
      </trkpt>
      <trkpt lat="43.13657" lon="2.99848">
        <ele>-1.197</ele>
        <time>2011-09-14T14:12:46Z</time>
      </trkpt>
      <trkpt lat="43.1367" lon="2.9985">
        <ele>-6.164</ele>
        <time>2011-09-14T14:12:51Z</time>
      </trkpt>
      <trkpt lat="43.13678" lon="2.99853">
        <ele>-10.388</ele>
        <time>2011-09-14T14:12:55Z</time>
      </trkpt>
      <trkpt lat="43.13687" lon="2.9986">
        <ele>-15.952</ele>
        <time>2011-09-14T14:13:00Z</time>
      </trkpt>
      <trkpt lat="43.13709" lon="2.99871">
        <ele>-20.031</ele>
        <time>2011-09-14T14:13:12Z</time>
      </trkpt>
      <trkpt lat="43.13736" lon="2.99885">
        <ele>-25.048</ele>
        <time>2011-09-14T14:13:25Z</time>
      </trkpt>
      <trkpt lat="43.13739" lon="2.99888">
        <ele>-25.039</ele>
        <time>2011-09-14T14:13:26Z</time>
      </trkpt>
      <trkpt lat="43.13751" lon="2.99901">
        <ele>-26.269</ele>
        <time>2011-09-14T14:13:29Z</time>
      </trkpt>
      <trkpt lat="43.13784" lon="2.99918">
        <ele>-23.322</ele>
        <time>2011-09-14T14:13:34Z</time>
      </trkpt>
      <trkpt lat="43.13816" lon="2.99917">
        <ele>-21.853</ele>
        <time>2011-09-14T14:13:38Z</time>
      </trkpt>
      <trkpt lat="43.1392" lon="2.99936">
        <ele>-22.991</ele>
        <time>2011-09-14T14:13:49Z</time>
      </trkpt>
      <trkpt lat="43.13946" lon="2.99948">
        <ele>-23.113</ele>
        <time>2011-09-14T14:13:52Z</time>
      </trkpt>
      <trkpt lat="43.14019" lon="2.99963">
        <ele>-13.93</ele>
        <time>2011-09-14T14:14:00Z</time>
      </trkpt>
      <trkpt lat="43.14133" lon="3.00028">
        <ele>-14.677</ele>
        <time>2011-09-14T14:14:13Z</time>
      </trkpt>
      <trkpt lat="43.14141" lon="3.00034">
        <ele>-14.919</ele>
        <time>2011-09-14T14:14:14Z</time>
      </trkpt>
      <trkpt lat="43.14216" lon="3.00067">
        <ele>-13.004</ele>
        <time>2011-09-14T14:14:22Z</time>
      </trkpt>
      <trkpt lat="43.14242" lon="3.0007">
        <ele>-15.288</ele>
        <time>2011-09-14T14:14:25Z</time>
      </trkpt>
      <trkpt lat="43.14321" lon="3.00096">
        <ele>-13.046</ele>
        <time>2011-09-14T14:14:32Z</time>
      </trkpt>
      <trkpt lat="43.14274" lon="3.0009">
        <ele>-13.569</ele>
        <time>2011-09-14T14:14:45Z</time>
      </trkpt>
      <trkpt lat="43.1428" lon="3.0009">
        <ele>-14.988</ele>
        <time>2011-09-14T14:15:09Z</time>
      </trkpt>
      <trkpt lat="43.14289" lon="3.00089">
        <ele>-16.079</ele>
        <time>2011-09-14T14:15:31Z</time>
      </trkpt>
      <trkpt lat="43.1429" lon="3.00076">
        <ele>-16.409</ele>
        <time>2011-09-14T14:15:50Z</time>
      </trkpt>
      <trkpt lat="43.14284" lon="3.0007">
        <ele>-16.615</ele>
        <time>2011-09-14T14:16:10Z</time>
      </trkpt>
      <trkpt lat="43.1428" lon="3.00063">
        <ele>-16.412</ele>
        <time>2011-09-14T14:17:47Z</time>
      </trkpt>
      <trkpt lat="43.14294" lon="3.0006">
        <ele>-13.472</ele>
        <time>2011-09-14T14:30:29Z</time>
      </trkpt>
      <trkpt lat="43.14297" lon="3.00063">
        <ele>-11.466</ele>
        <time>2011-09-14T14:30:54Z</time>
      </trkpt>
      <trkpt lat="43.14298" lon="3.00063">
        <ele>-11.793</ele>
        <time>2011-09-14T14:31:15Z</time>
      </trkpt>
      <trkpt lat="43.14299" lon="3.00062">
        <ele>-12.875</ele>
        <time>2011-09-14T14:31:46Z</time>
      </trkpt>
      <trkpt lat="43.14299" lon="3.00063">
        <ele>-12.422</ele>
        <time>2011-09-14T14:32:12Z</time>
      </trkpt>
      <trkpt lat="43.14299" lon="3.0006">
        <ele>-12.433</ele>
        <time>2011-09-14T14:32:50Z</time>
      </trkpt>
      <trkpt lat="43.14296" lon="3.00072">
        <ele>-10.61</ele>
        <time>2011-09-14T14:33:14Z</time>
      </trkpt>
      <trkpt lat="43.14295" lon="3.00076">
        <ele>-10.085</ele>
        <time>2011-09-14T14:33:17Z</time>
      </trkpt>
      <trkpt lat="43.14294" lon="3.00084">
        <ele>-9.366</ele>
        <time>2011-09-14T14:33:24Z</time>
      </trkpt>
      <trkpt lat="43.14284" lon="3.00088">
        <ele>-9.558</ele>
        <time>2011-09-14T14:33:44Z</time>
      </trkpt>
      <trkpt lat="43.14281" lon="3.00091">
        <ele>-8.508</ele>
        <time>2011-09-14T14:33:58Z</time>
      </trkpt>
      <trkpt lat="43.14276" lon="3.00097">
        <ele>-8.85</ele>
        <time>2011-09-14T14:34:16Z</time>
      </trkpt>
      <trkpt lat="43.14272" lon="3.00096">
        <ele>-8.336</ele>
        <time>2011-09-14T14:34:31Z</time>
      </trkpt>
      <trkpt lat="43.14264" lon="3.00093">
        <ele>-8.441</ele>
        <time>2011-09-14T14:34:44Z</time>
      </trkpt>
      <trkpt lat="43.14237" lon="3.00075">
        <ele>-7.646</ele>
        <time>2011-09-14T14:35:01Z</time>
      </trkpt>
      <trkpt lat="43.14204" lon="3.00063">
        <ele>-6.879</ele>
        <time>2011-09-14T14:35:16Z</time>
      </trkpt>
      <trkpt lat="43.1417" lon="3.00055">
        <ele>-6.18</ele>
        <time>2011-09-14T14:35:30Z</time>
      </trkpt>
      <trkpt lat="43.14133" lon="3.00057">
        <ele>-5.478</ele>
        <time>2011-09-14T14:35:40Z</time>
      </trkpt>
      <trkpt lat="43.14129" lon="3.00057">
        <ele>-5.33</ele>
        <time>2011-09-14T14:35:41Z</time>
      </trkpt>
      <trkpt lat="43.14119" lon="3.00057">
        <ele>-5.172</ele>
        <time>2011-09-14T14:35:43Z</time>
      </trkpt>
      <trkpt lat="43.14099" lon="3.00051">
        <ele>-5.018</ele>
        <time>2011-09-14T14:35:46Z</time>
      </trkpt>
      <trkpt lat="43.13984" lon="2.99995">
        <ele>-5.951</ele>
        <time>2011-09-14T14:35:59Z</time>
      </trkpt>
      <trkpt lat="43.13928" lon="2.99962">
        <ele>-5.558</ele>
        <time>2011-09-14T14:36:05Z</time>
      </trkpt>
      <trkpt lat="43.13816" lon="2.99839">
        <ele>-3.659</ele>
        <time>2011-09-14T14:36:19Z</time>
      </trkpt>
      <trkpt lat="43.13793" lon="2.99812">
        <ele>-4.318</ele>
        <time>2011-09-14T14:36:22Z</time>
      </trkpt>
      <trkpt lat="43.13744" lon="2.9974">
        <ele>-4.263</ele>
        <time>2011-09-14T14:36:29Z</time>
      </trkpt>
      <trkpt lat="43.13625" lon="2.99636">
        <ele>-2.708</ele>
        <time>2011-09-14T14:36:43Z</time>
      </trkpt>
      <trkpt lat="43.13521" lon="2.99547">
        <ele>-3.608</ele>
        <time>2011-09-14T14:36:54Z</time>
      </trkpt>
      <trkpt lat="43.13473" lon="2.99552">
        <ele>-5.068</ele>
        <time>2011-09-14T14:37:00Z</time>
      </trkpt>
      <trkpt lat="43.13476" lon="2.99564">
        <ele>-5.787</ele>
        <time>2011-09-14T14:37:02Z</time>
      </trkpt>
      <trkpt lat="43.13482" lon="2.99575">
        <ele>-5.42</ele>
        <time>2011-09-14T14:37:04Z</time>
      </trkpt>
      <trkpt lat="43.13501" lon="2.99603">
        <ele>-5.93</ele>
        <time>2011-09-14T14:37:08Z</time>
      </trkpt>
      <trkpt lat="43.13607" lon="2.99672">
        <ele>-6.354</ele>
        <time>2011-09-14T14:37:20Z</time>
      </trkpt>
      <trkpt lat="43.13757" lon="2.99755">
        <ele>-5.047</ele>
        <time>2011-09-14T14:37:34Z</time>
      </trkpt>
      <trkpt lat="43.13884" lon="2.99823">
        <ele>-3.202</ele>
        <time>2011-09-14T14:37:47Z</time>
      </trkpt>
      <trkpt lat="43.14017" lon="2.99899">
        <ele>-2.433</ele>
        <time>2011-09-14T14:38:03Z</time>
      </trkpt>
      <trkpt lat="43.14024" lon="2.99904">
        <ele>-2.468</ele>
        <time>2011-09-14T14:38:04Z</time>
      </trkpt>
      <trkpt lat="43.14134" lon="2.9998">
        <ele>-2.643</ele>
        <time>2011-09-14T14:38:18Z</time>
      </trkpt>
      <trkpt lat="43.14203" lon="3.00018">
        <ele>-2.411</ele>
        <time>2011-09-14T14:38:26Z</time>
      </trkpt>
      <trkpt lat="43.14227" lon="3.00011">
        <ele>-2.279</ele>
        <time>2011-09-14T14:38:32Z</time>
      </trkpt>
      <trkpt lat="43.14226" lon="3.0001">
        <ele>-2.367</ele>
        <time>2011-09-14T14:38:34Z</time>
      </trkpt>
      <trkpt lat="43.14193" lon="3.00003">
        <ele>-3.181</ele>
        <time>2011-09-14T14:38:47Z</time>
      </trkpt>
      <trkpt lat="43.14168" lon="3.00004">
        <ele>-3.855</ele>
        <time>2011-09-14T14:38:55Z</time>
      </trkpt>
      <trkpt lat="43.14122" lon="3.00003">
        <ele>-4.877</ele>
        <time>2011-09-14T14:39:09Z</time>
      </trkpt>
      <trkpt lat="43.14119" lon="3.00003">
        <ele>-5.054</ele>
        <time>2011-09-14T14:39:10Z</time>
      </trkpt>
      <trkpt lat="43.14102" lon="3.00001">
        <ele>-5.053</ele>
        <time>2011-09-14T14:39:13Z</time>
      </trkpt>
      <trkpt lat="43.14054" lon="2.99983">
        <ele>-5.47</ele>
        <time>2011-09-14T14:39:19Z</time>
      </trkpt>
      <trkpt lat="43.13969" lon="2.9994">
        <ele>-3.697</ele>
        <time>2011-09-14T14:39:28Z</time>
      </trkpt>
      <trkpt lat="43.13822" lon="2.99895">
        <ele>-3.18</ele>
        <time>2011-09-14T14:39:43Z</time>
      </trkpt>
      <trkpt lat="43.13674" lon="2.99825">
        <ele>-1.457</ele>
        <time>2011-09-14T14:39:57Z</time>
      </trkpt>
      <trkpt lat="43.13664" lon="2.99821">
        <ele>-2.096</ele>
        <time>2011-09-14T14:39:58Z</time>
      </trkpt>
      <trkpt lat="43.13635" lon="2.99806">
        <ele>-2.337</ele>
        <time>2011-09-14T14:40:01Z</time>
      </trkpt>
      <trkpt lat="43.13523" lon="2.9978">
        <ele>-2.159</ele>
        <time>2011-09-14T14:40:14Z</time>
      </trkpt>
      <trkpt lat="43.13485" lon="2.99768">
        <ele>-2.329</ele>
        <time>2011-09-14T14:40:18Z</time>
      </trkpt>
      <trkpt lat="43.13422" lon="2.99721">
        <ele>-1.86</ele>
        <time>2011-09-14T14:40:25Z</time>
      </trkpt>
      <trkpt lat="43.13407" lon="2.99703">
        <ele>-1.242</ele>
        <time>2011-09-14T14:40:27Z</time>
      </trkpt>
      <trkpt lat="43.13291" lon="2.99595">
        <ele>-0.769</ele>
        <time>2011-09-14T14:40:41Z</time>
      </trkpt>
      <trkpt lat="43.13249" lon="2.99561">
        <ele>0.171</ele>
        <time>2011-09-14T14:40:46Z</time>
      </trkpt>
      <trkpt lat="43.13201" lon="2.99563">
        <ele>-0.122</ele>
        <time>2011-09-14T14:40:52Z</time>
      </trkpt>
      <trkpt lat="43.13204" lon="2.99576">
        <ele>-0.901</ele>
        <time>2011-09-14T14:40:54Z</time>
      </trkpt>
      <trkpt lat="43.13221" lon="2.99601">
        <ele>-1.804</ele>
        <time>2011-09-14T14:40:58Z</time>
      </trkpt>
      <trkpt lat="43.13274" lon="2.9964">
        <ele>-1.849</ele>
        <time>2011-09-14T14:41:05Z</time>
      </trkpt>
      <trkpt lat="43.13328" lon="2.9966">
        <ele>-1.694</ele>
        <time>2011-09-14T14:41:11Z</time>
      </trkpt>
      <trkpt lat="43.13356" lon="2.99665">
        <ele>-2.008</ele>
        <time>2011-09-14T14:41:14Z</time>
      </trkpt>
      <trkpt lat="43.13487" lon="2.99684">
        <ele>-2.313</ele>
        <time>2011-09-14T14:41:28Z</time>
      </trkpt>
      <trkpt lat="43.13643" lon="2.99671">
        <ele>-2.463</ele>
        <time>2011-09-14T14:41:44Z</time>
      </trkpt>
      <trkpt lat="43.13795" lon="2.99665">
        <ele>-4.193</ele>
        <time>2011-09-14T14:42:00Z</time>
      </trkpt>
      <trkpt lat="43.13877" lon="2.99679">
        <ele>-4.43</ele>
        <time>2011-09-14T14:42:08Z</time>
      </trkpt>
      <trkpt lat="43.14009" lon="2.99752">
        <ele>-3.832</ele>
        <time>2011-09-14T14:42:23Z</time>
      </trkpt>
      <trkpt lat="43.14097" lon="2.99808">
        <ele>-3.119</ele>
        <time>2011-09-14T14:42:35Z</time>
      </trkpt>
      <trkpt lat="43.14204" lon="2.99911">
        <ele>-2.145</ele>
        <time>2011-09-14T14:42:51Z</time>
      </trkpt>
      <trkpt lat="43.14216" lon="2.9993">
        <ele>-1.919</ele>
        <time>2011-09-14T14:42:53Z</time>
      </trkpt>
      <trkpt lat="43.14231" lon="2.99966">
        <ele>-1.763</ele>
        <time>2011-09-14T14:42:56Z</time>
      </trkpt>
      <trkpt lat="43.14229" lon="3.00008">
        <ele>-2.772</ele>
        <time>2011-09-14T14:43:01Z</time>
      </trkpt>
      <trkpt lat="43.14223" lon="3.00008">
        <ele>-2.506</ele>
        <time>2011-09-14T14:43:04Z</time>
      </trkpt>
      <trkpt lat="43.14218" lon="3.00006">
        <ele>-3.069</ele>
        <time>2011-09-14T14:43:06Z</time>
      </trkpt>
      <trkpt lat="43.1419" lon="2.99996">
        <ele>-3.568</ele>
        <time>2011-09-14T14:43:11Z</time>
      </trkpt>
      <trkpt lat="43.14164" lon="2.99984">
        <ele>-3.637</ele>
        <time>2011-09-14T14:43:14Z</time>
      </trkpt>
      <trkpt lat="43.14055" lon="2.99973">
        <ele>-3.019</ele>
        <time>2011-09-14T14:43:27Z</time>
      </trkpt>
      <trkpt lat="43.13927" lon="2.99949">
        <ele>-3.686</ele>
        <time>2011-09-14T14:43:42Z</time>
      </trkpt>
      <trkpt lat="43.13816" lon="2.99922">
        <ele>-3.767</ele>
        <time>2011-09-14T14:43:55Z</time>
      </trkpt>
      <trkpt lat="43.13702" lon="2.99891">
        <ele>-3.681</ele>
        <time>2011-09-14T14:44:09Z</time>
      </trkpt>
      <trkpt lat="43.13597" lon="2.9987">
        <ele>-4.074</ele>
        <time>2011-09-14T14:44:23Z</time>
      </trkpt>
      <trkpt lat="43.13531" lon="2.99855">
        <ele>-2.405</ele>
        <time>2011-09-14T14:44:32Z</time>
      </trkpt>
      <trkpt lat="43.13461" lon="2.99861">
        <ele>-1.94</ele>
        <time>2011-09-14T14:44:43Z</time>
      </trkpt>
      <trkpt lat="43.13416" lon="2.99859">
        <ele>-3.153</ele>
        <time>2011-09-14T14:44:48Z</time>
      </trkpt>
      <trkpt lat="43.13288" lon="2.99831">
        <ele>-2.756</ele>
        <time>2011-09-14T14:45:01Z</time>
      </trkpt>
      <trkpt lat="43.13143" lon="2.99789">
        <ele>-2.302</ele>
        <time>2011-09-14T14:45:15Z</time>
      </trkpt>
      <trkpt lat="43.13091" lon="2.99773">
        <ele>-2.584</ele>
        <time>2011-09-14T14:45:20Z</time>
      </trkpt>
      <trkpt lat="43.13011" lon="2.99734">
        <ele>-1.834</ele>
        <time>2011-09-14T14:45:28Z</time>
      </trkpt>
      <trkpt lat="43.12977" lon="2.99708">
        <ele>-1.841</ele>
        <time>2011-09-14T14:45:32Z</time>
      </trkpt>
      <trkpt lat="43.12939" lon="2.99734">
        <ele>-1.103</ele>
        <time>2011-09-14T14:45:38Z</time>
      </trkpt>
      <trkpt lat="43.12942" lon="2.99738">
        <ele>-1.449</ele>
        <time>2011-09-14T14:45:39Z</time>
      </trkpt>
      <trkpt lat="43.12965" lon="2.99768">
        <ele>-2.447</ele>
        <time>2011-09-14T14:45:45Z</time>
      </trkpt>
      <trkpt lat="43.13044" lon="2.99828">
        <ele>-1.391</ele>
        <time>2011-09-14T14:45:57Z</time>
      </trkpt>
      <trkpt lat="43.13172" lon="2.99855">
        <ele>-1.599</ele>
        <time>2011-09-14T14:46:11Z</time>
      </trkpt>
      <trkpt lat="43.13278" lon="2.99865">
        <ele>-2.377</ele>
        <time>2011-09-14T14:46:22Z</time>
      </trkpt>
      <trkpt lat="43.13402" lon="2.99869">
        <ele>-3.067</ele>
        <time>2011-09-14T14:46:35Z</time>
      </trkpt>
      <trkpt lat="43.13554" lon="2.99854">
        <ele>-4.444</ele>
        <time>2011-09-14T14:46:51Z</time>
      </trkpt>
      <trkpt lat="43.13676" lon="2.99827">
        <ele>-4.41</ele>
        <time>2011-09-14T14:47:04Z</time>
      </trkpt>
      <trkpt lat="43.13685" lon="2.99826">
        <ele>-4.493</ele>
        <time>2011-09-14T14:47:05Z</time>
      </trkpt>
      <trkpt lat="43.13772" lon="2.9985">
        <ele>-4.746</ele>
        <time>2011-09-14T14:47:15Z</time>
      </trkpt>
      <trkpt lat="43.13944" lon="2.99878">
        <ele>-5.179</ele>
        <time>2011-09-14T14:47:32Z</time>
      </trkpt>
      <trkpt lat="43.1408" lon="2.99878">
        <ele>-6.063</ele>
        <time>2011-09-14T14:47:46Z</time>
      </trkpt>
      <trkpt lat="43.14123" lon="2.99883">
        <ele>-5.812</ele>
        <time>2011-09-14T14:47:51Z</time>
      </trkpt>
      <trkpt lat="43.14176" lon="2.99916">
        <ele>-4.654</ele>
        <time>2011-09-14T14:47:58Z</time>
      </trkpt>
      <trkpt lat="43.14236" lon="2.99933">
        <ele>-4.161</ele>
        <time>2011-09-14T14:48:05Z</time>
      </trkpt>
      <trkpt lat="43.14241" lon="2.99928">
        <ele>-4.244</ele>
        <time>2011-09-14T14:48:13Z</time>
      </trkpt>
      <trkpt lat="43.14206" lon="2.99924">
        <ele>-2.514</ele>
        <time>2011-09-14T14:48:26Z</time>
      </trkpt>
      <trkpt lat="43.14177" lon="2.99926">
        <ele>-0.963</ele>
        <time>2011-09-14T14:48:38Z</time>
      </trkpt>
      <trkpt lat="43.14148" lon="2.99935">
        <ele>0.151</ele>
        <time>2011-09-14T14:48:48Z</time>
      </trkpt>
      <trkpt lat="43.14137" lon="2.99935">
        <ele>-0.394</ele>
        <time>2011-09-14T14:48:53Z</time>
      </trkpt>
      <trkpt lat="43.1412" lon="2.99942">
        <ele>-0.373</ele>
        <time>2011-09-14T14:48:57Z</time>
      </trkpt>
      <trkpt lat="43.14053" lon="2.99949">
        <ele>-1.14</ele>
        <time>2011-09-14T14:49:08Z</time>
      </trkpt>
      <trkpt lat="43.13949" lon="2.99927">
        <ele>-2.348</ele>
        <time>2011-09-14T14:49:20Z</time>
      </trkpt>
      <trkpt lat="43.13837" lon="2.99912">
        <ele>-2.2</ele>
        <time>2011-09-14T14:49:33Z</time>
      </trkpt>
      <trkpt lat="43.1377" lon="2.99911">
        <ele>-1.981</ele>
        <time>2011-09-14T14:49:42Z</time>
      </trkpt>
      <trkpt lat="43.13747" lon="2.99901">
        <ele>-1.975</ele>
        <time>2011-09-14T14:49:50Z</time>
      </trkpt>
      <trkpt lat="43.13718" lon="2.99897">
        <ele>-1.613</ele>
        <time>2011-09-14T14:50:06Z</time>
      </trkpt>
      <trkpt lat="43.1367" lon="2.9991">
        <ele>-0.979</ele>
        <time>2011-09-14T14:50:17Z</time>
      </trkpt>
      <trkpt lat="43.13662" lon="2.9991">
        <ele>-0.809</ele>
        <time>2011-09-14T14:50:18Z</time>
      </trkpt>
      <trkpt lat="43.13524" lon="2.99891">
        <ele>-0.951</ele>
        <time>2011-09-14T14:50:31Z</time>
      </trkpt>
      <trkpt lat="43.13448" lon="2.9986">
        <ele>0.373</ele>
        <time>2011-09-14T14:50:38Z</time>
      </trkpt>
      <trkpt lat="43.13311" lon="2.99822">
        <ele>4.18</ele>
        <time>2011-09-14T14:50:52Z</time>
      </trkpt>
      <trkpt lat="43.13263" lon="2.99809">
        <ele>5.128</ele>
        <time>2011-09-14T14:50:57Z</time>
      </trkpt>
      <trkpt lat="43.13248" lon="2.99831">
        <ele>6.888</ele>
        <time>2011-09-14T14:51:02Z</time>
      </trkpt>
      <trkpt lat="43.13251" lon="2.99833">
        <ele>7.34</ele>
        <time>2011-09-14T14:51:04Z</time>
      </trkpt>
      <trkpt lat="43.13283" lon="2.99861">
        <ele>7.154</ele>
        <time>2011-09-14T14:51:14Z</time>
      </trkpt>
      <trkpt lat="43.13374" lon="2.9991">
        <ele>7.794</ele>
        <time>2011-09-14T14:51:27Z</time>
      </trkpt>
      <trkpt lat="43.13381" lon="2.99914">
        <ele>8.008</ele>
        <time>2011-09-14T14:51:28Z</time>
      </trkpt>
      <trkpt lat="43.13425" lon="2.99945">
        <ele>8.069</ele>
        <time>2011-09-14T14:51:34Z</time>
      </trkpt>
      <trkpt lat="43.13473" lon="2.99971">
        <ele>8.802</ele>
        <time>2011-09-14T14:51:40Z</time>
      </trkpt>
      <trkpt lat="43.13585" lon="3.00026">
        <ele>10.087</ele>
        <time>2011-09-14T14:51:53Z</time>
      </trkpt>
      <trkpt lat="43.13703" lon="3.0008">
        <ele>11.481</ele>
        <time>2011-09-14T14:52:06Z</time>
      </trkpt>
      <trkpt lat="43.13769" lon="3.00107">
        <ele>10.672</ele>
        <time>2011-09-14T14:52:14Z</time>
      </trkpt>
      <trkpt lat="43.13918" lon="3.00135">
        <ele>9.956</ele>
        <time>2011-09-14T14:52:31Z</time>
      </trkpt>
      <trkpt lat="43.14075" lon="3.00146">
        <ele>9.003</ele>
        <time>2011-09-14T14:52:48Z</time>
      </trkpt>
      <trkpt lat="43.141" lon="3.00144">
        <ele>8.483</ele>
        <time>2011-09-14T14:52:51Z</time>
      </trkpt>
      <trkpt lat="43.14123" lon="3.00148">
        <ele>8.57</ele>
        <time>2011-09-14T14:52:54Z</time>
      </trkpt>
      <trkpt lat="43.14144" lon="3.00158">
        <ele>8.165</ele>
        <time>2011-09-14T14:52:57Z</time>
      </trkpt>
      <trkpt lat="43.14224" lon="3.00191">
        <ele>8.511</ele>
        <time>2011-09-14T14:53:08Z</time>
      </trkpt>
      <trkpt lat="43.14244" lon="3.00186">
        <ele>8.125</ele>
        <time>2011-09-14T14:53:15Z</time>
      </trkpt>
      <trkpt lat="43.1424" lon="3.00185">
        <ele>8.183</ele>
        <time>2011-09-14T14:53:20Z</time>
      </trkpt>
      <trkpt lat="43.14238" lon="3.00184">
        <ele>7.979</ele>
        <time>2011-09-14T14:53:22Z</time>
      </trkpt>
      <trkpt lat="43.14208" lon="3.00172">
        <ele>6.731</ele>
        <time>2011-09-14T14:53:34Z</time>
      </trkpt>
      <trkpt lat="43.14166" lon="3.00163">
        <ele>6.061</ele>
        <time>2011-09-14T14:53:50Z</time>
      </trkpt>
      <trkpt lat="43.14111" lon="3.00164">
        <ele>7.996</ele>
        <time>2011-09-14T14:54:02Z</time>
      </trkpt>
      <trkpt lat="43.14097" lon="3.00165">
        <ele>8.47</ele>
        <time>2011-09-14T14:54:04Z</time>
      </trkpt>
      <trkpt lat="43.13988" lon="3.00142">
        <ele>9.439</ele>
        <time>2011-09-14T14:54:16Z</time>
      </trkpt>
      <trkpt lat="43.13873" lon="3.00087">
        <ele>7.243</ele>
        <time>2011-09-14T14:54:28Z</time>
      </trkpt>
      <trkpt lat="43.13769" lon="3.00008">
        <ele>6.77</ele>
        <time>2011-09-14T14:54:40Z</time>
      </trkpt>
      <trkpt lat="43.13744" lon="2.9999">
        <ele>6.937</ele>
        <time>2011-09-14T14:54:43Z</time>
      </trkpt>
      <trkpt lat="43.13701" lon="2.9997">
        <ele>6.993</ele>
        <time>2011-09-14T14:54:48Z</time>
      </trkpt>
      <trkpt lat="43.1355" lon="2.99877">
        <ele>8.394</ele>
        <time>2011-09-14T14:55:05Z</time>
      </trkpt>
      <trkpt lat="43.13505" lon="2.99846">
        <ele>8.288</ele>
        <time>2011-09-14T14:55:11Z</time>
      </trkpt>
      <trkpt lat="43.13422" lon="2.99828">
        <ele>9.554</ele>
        <time>2011-09-14T14:55:23Z</time>
      </trkpt>
      <trkpt lat="43.13334" lon="2.99786">
        <ele>8.114</ele>
        <time>2011-09-14T14:55:34Z</time>
      </trkpt>
      <trkpt lat="43.13289" lon="2.99752">
        <ele>8.534</ele>
        <time>2011-09-14T14:55:40Z</time>
      </trkpt>
      <trkpt lat="43.13243" lon="2.99721">
        <ele>8.23</ele>
        <time>2011-09-14T14:55:46Z</time>
      </trkpt>
      <trkpt lat="43.13136" lon="2.99631">
        <ele>3.447</ele>
        <time>2011-09-14T14:56:01Z</time>
      </trkpt>
      <trkpt lat="43.13123" lon="2.99622">
        <ele>3.752</ele>
        <time>2011-09-14T14:56:03Z</time>
      </trkpt>
      <trkpt lat="43.13112" lon="2.99603">
        <ele>3.453</ele>
        <time>2011-09-14T14:56:10Z</time>
      </trkpt>
      <trkpt lat="43.13113" lon="2.99602">
        <ele>3.999</ele>
        <time>2011-09-14T14:56:18Z</time>
      </trkpt>
      <trkpt lat="43.13148" lon="2.99624">
        <ele>1.051</ele>
        <time>2011-09-14T14:56:30Z</time>
      </trkpt>
      <trkpt lat="43.13185" lon="2.99658">
        <ele>-2.378</ele>
        <time>2011-09-14T14:56:49Z</time>
      </trkpt>
      <trkpt lat="43.13218" lon="2.99682">
        <ele>-2.088</ele>
        <time>2011-09-14T14:57:07Z</time>
      </trkpt>
      <trkpt lat="43.13251" lon="2.99698">
        <ele>-3.126</ele>
        <time>2011-09-14T14:57:28Z</time>
      </trkpt>
      <trkpt lat="43.13276" lon="2.99714">
        <ele>-2.224</ele>
        <time>2011-09-14T14:57:45Z</time>
      </trkpt>
      <trkpt lat="43.13301" lon="2.99741">
        <ele>-2.439</ele>
        <time>2011-09-14T14:57:58Z</time>
      </trkpt>
      <trkpt lat="43.13321" lon="2.99771">
        <ele>-2.164</ele>
        <time>2011-09-14T14:58:07Z</time>
      </trkpt>
      <trkpt lat="43.13349" lon="2.99814">
        <ele>-1.711</ele>
        <time>2011-09-14T14:58:15Z</time>
      </trkpt>
      <trkpt lat="43.13426" lon="2.99877">
        <ele>-2.072</ele>
        <time>2011-09-14T14:58:27Z</time>
      </trkpt>
      <trkpt lat="43.13473" lon="2.99905">
        <ele>-2.12</ele>
        <time>2011-09-14T14:58:34Z</time>
      </trkpt>
      <trkpt lat="43.13501" lon="2.9992">
        <ele>-2.056</ele>
        <time>2011-09-14T14:58:38Z</time>
      </trkpt>
      <trkpt lat="43.13522" lon="2.99935">
        <ele>-2.567</ele>
        <time>2011-09-14T14:58:41Z</time>
      </trkpt>
      <trkpt lat="43.13644" lon="2.99995">
        <ele>-2.335</ele>
        <time>2011-09-14T14:58:57Z</time>
      </trkpt>
      <trkpt lat="43.13699" lon="3.00037">
        <ele>-2.427</ele>
        <time>2011-09-14T14:59:05Z</time>
      </trkpt>
      <trkpt lat="43.13722" lon="3.0005">
        <ele>-2.738</ele>
        <time>2011-09-14T14:59:08Z</time>
      </trkpt>
      <trkpt lat="43.13828" lon="3.00099">
        <ele>-3.135</ele>
        <time>2011-09-14T14:59:22Z</time>
      </trkpt>
      <trkpt lat="43.13888" lon="3.0013">
        <ele>-2.849</ele>
        <time>2011-09-14T14:59:31Z</time>
      </trkpt>
      <trkpt lat="43.13913" lon="3.00132">
        <ele>-3.029</ele>
        <time>2011-09-14T14:59:38Z</time>
      </trkpt>
      <trkpt lat="43.13916" lon="3.00134">
        <ele>-2.982</ele>
        <time>2011-09-14T14:59:40Z</time>
      </trkpt>
      <trkpt lat="43.13919" lon="3.00137">
        <ele>-2.107</ele>
        <time>2011-09-14T14:59:52Z</time>
      </trkpt>
      <trkpt lat="43.13893" lon="3.0011">
        <ele>-2.042</ele>
        <time>2011-09-14T15:00:05Z</time>
      </trkpt>
      <trkpt lat="43.13848" lon="3.00075">
        <ele>-2.104</ele>
        <time>2011-09-14T15:00:21Z</time>
      </trkpt>
      <trkpt lat="43.13802" lon="3.00046">
        <ele>-2.506</ele>
        <time>2011-09-14T15:00:38Z</time>
      </trkpt>
      <trkpt lat="43.13758" lon="3.00024">
        <ele>-3.092</ele>
        <time>2011-09-14T15:00:46Z</time>
      </trkpt>
      <trkpt lat="43.13693" lon="3.00006">
        <ele>-2.129</ele>
        <time>2011-09-14T15:00:58Z</time>
      </trkpt>
      <trkpt lat="43.13673" lon="2.99989">
        <ele>-0.611</ele>
        <time>2011-09-14T15:01:07Z</time>
      </trkpt>
      <trkpt lat="43.13623" lon="2.99952">
        <ele>-1.224</ele>
        <time>2011-09-14T15:01:27Z</time>
      </trkpt>
      <trkpt lat="43.13594" lon="2.9993">
        <ele>-1.319</ele>
        <time>2011-09-14T15:01:40Z</time>
      </trkpt>
      <trkpt lat="43.13579" lon="2.99924">
        <ele>-1.762</ele>
        <time>2011-09-14T15:01:44Z</time>
      </trkpt>
      <trkpt lat="43.13505" lon="2.99906">
        <ele>-1.139</ele>
        <time>2011-09-14T15:01:58Z</time>
      </trkpt>
      <trkpt lat="43.13418" lon="2.9985">
        <ele>-1.12</ele>
        <time>2011-09-14T15:02:09Z</time>
      </trkpt>
      <trkpt lat="43.13368" lon="2.99816">
        <ele>-1.43</ele>
        <time>2011-09-14T15:02:16Z</time>
      </trkpt>
      <trkpt lat="43.13352" lon="2.99798">
        <ele>-0.575</ele>
        <time>2011-09-14T15:02:20Z</time>
      </trkpt>
      <trkpt lat="43.13353" lon="2.99793">
        <ele>-1.435</ele>
        <time>2011-09-14T15:02:32Z</time>
      </trkpt>
      <trkpt lat="43.13387" lon="2.99801">
        <ele>-0.362</ele>
        <time>2011-09-14T15:02:48Z</time>
      </trkpt>
      <trkpt lat="43.13438" lon="2.99828">
        <ele>0.027</ele>
        <time>2011-09-14T15:02:59Z</time>
      </trkpt>
      <trkpt lat="43.13546" lon="2.9986">
        <ele>0.23</ele>
        <time>2011-09-14T15:03:12Z</time>
      </trkpt>
      <trkpt lat="43.13584" lon="2.99876">
        <ele>0.377</ele>
        <time>2011-09-14T15:03:17Z</time>
      </trkpt>
      <trkpt lat="43.13656" lon="2.99901">
        <ele>-0.207</ele>
        <time>2011-09-14T15:03:26Z</time>
      </trkpt>
      <trkpt lat="43.1376" lon="2.99945">
        <ele>-0.038</ele>
        <time>2011-09-14T15:03:39Z</time>
      </trkpt>
      <trkpt lat="43.13844" lon="2.99995">
        <ele>-0.311</ele>
        <time>2011-09-14T15:03:51Z</time>
      </trkpt>
      <trkpt lat="43.13937" lon="3.00049">
        <ele>-0.566</ele>
        <time>2011-09-14T15:04:04Z</time>
      </trkpt>
      <trkpt lat="43.14047" lon="3.00118">
        <ele>-0.419</ele>
        <time>2011-09-14T15:04:18Z</time>
      </trkpt>
      <trkpt lat="43.14166" lon="3.00147">
        <ele>-0.621</ele>
        <time>2011-09-14T15:04:31Z</time>
      </trkpt>
      <trkpt lat="43.14218" lon="3.0014">
        <ele>-0.892</ele>
        <time>2011-09-14T15:04:37Z</time>
      </trkpt>
      <trkpt lat="43.14233" lon="3.00129">
        <ele>0.058</ele>
        <time>2011-09-14T15:04:43Z</time>
      </trkpt>
      <trkpt lat="43.14232" lon="3.00128">
        <ele>0.146</ele>
        <time>2011-09-14T15:04:44Z</time>
      </trkpt>
      <trkpt lat="43.14201" lon="3.00111">
        <ele>-1.235</ele>
        <time>2011-09-14T15:04:56Z</time>
      </trkpt>
      <trkpt lat="43.14179" lon="3.00101">
        <ele>-1.835</ele>
        <time>2011-09-14T15:05:00Z</time>
      </trkpt>
      <trkpt lat="43.14115" lon="3.00025">
        <ele>0.18</ele>
        <time>2011-09-14T15:05:09Z</time>
      </trkpt>
      <trkpt lat="43.14101" lon="3.00005">
        <ele>0.846</ele>
        <time>2011-09-14T15:05:11Z</time>
      </trkpt>
      <trkpt lat="43.13997" lon="2.99887">
        <ele>-0.195</ele>
        <time>2011-09-14T15:05:25Z</time>
      </trkpt>
      <trkpt lat="43.13897" lon="2.9978">
        <ele>-2.251</ele>
        <time>2011-09-14T15:05:38Z</time>
      </trkpt>
      <trkpt lat="43.13781" lon="2.99677">
        <ele>-2.196</ele>
        <time>2011-09-14T15:05:52Z</time>
      </trkpt>
      <trkpt lat="43.13705" lon="2.99589">
        <ele>-0.93</ele>
        <time>2011-09-14T15:06:02Z</time>
      </trkpt>
      <trkpt lat="43.13682" lon="2.99568">
        <ele>-1.812</ele>
        <time>2011-09-14T15:06:05Z</time>
      </trkpt>
      <trkpt lat="43.13644" lon="2.99516">
        <ele>-2.322</ele>
        <time>2011-09-14T15:06:11Z</time>
      </trkpt>
      <trkpt lat="43.13617" lon="2.99486">
        <ele>-2.447</ele>
        <time>2011-09-14T15:06:15Z</time>
      </trkpt>
      <trkpt lat="43.13564" lon="2.99399">
        <ele>-2.979</ele>
        <time>2011-09-14T15:06:24Z</time>
      </trkpt>
      <trkpt lat="43.13519" lon="2.99338">
        <ele>-0.463</ele>
        <time>2011-09-14T15:06:31Z</time>
      </trkpt>
      <trkpt lat="43.13508" lon="2.99319">
        <ele>0.289</ele>
        <time>2011-09-14T15:06:33Z</time>
      </trkpt>
      <trkpt lat="43.13507" lon="2.99294">
        <ele>-2.109</ele>
        <time>2011-09-14T15:06:39Z</time>
      </trkpt>
      <trkpt lat="43.1351" lon="2.99297">
        <ele>-2.228</ele>
        <time>2011-09-14T15:06:43Z</time>
      </trkpt>
      <trkpt lat="43.13518" lon="2.99306">
        <ele>-1.428</ele>
        <time>2011-09-14T15:06:47Z</time>
      </trkpt>
      <trkpt lat="43.1353" lon="2.9933">
        <ele>-1.644</ele>
        <time>2011-09-14T15:06:51Z</time>
      </trkpt>
      <trkpt lat="43.13599" lon="2.99419">
        <ele>-0.915</ele>
        <time>2011-09-14T15:07:04Z</time>
      </trkpt>
      <trkpt lat="43.13713" lon="2.99542">
        <ele>-2.631</ele>
        <time>2011-09-14T15:07:19Z</time>
      </trkpt>
      <trkpt lat="43.13811" lon="2.99641">
        <ele>-1.683</ele>
        <time>2011-09-14T15:07:32Z</time>
      </trkpt>
      <trkpt lat="43.13884" lon="2.99719">
        <ele>-1.321</ele>
        <time>2011-09-14T15:07:44Z</time>
      </trkpt>
      <trkpt lat="43.1392" lon="2.99764">
        <ele>-0.396</ele>
        <time>2011-09-14T15:07:55Z</time>
      </trkpt>
      <trkpt lat="43.13963" lon="2.998">
        <ele>0.233</ele>
        <time>2011-09-14T15:08:16Z</time>
      </trkpt>
      <trkpt lat="43.13992" lon="2.99821">
        <ele>0.975</ele>
        <time>2011-09-14T15:08:32Z</time>
      </trkpt>
      <trkpt lat="43.14029" lon="2.9985">
        <ele>0.655</ele>
        <time>2011-09-14T15:08:51Z</time>
      </trkpt>
      <trkpt lat="43.14057" lon="2.99884">
        <ele>0.054</ele>
        <time>2011-09-14T15:09:04Z</time>
      </trkpt>
      <trkpt lat="43.14078" lon="2.9991">
        <ele>0.35</ele>
        <time>2011-09-14T15:09:15Z</time>
      </trkpt>
      <trkpt lat="43.1409" lon="2.99931">
        <ele>-0.065</ele>
        <time>2011-09-14T15:09:19Z</time>
      </trkpt>
      <trkpt lat="43.14114" lon="2.99964">
        <ele>-0.796</ele>
        <time>2011-09-14T15:09:24Z</time>
      </trkpt>
      <trkpt lat="43.14159" lon="3.00004">
        <ele>-0.538</ele>
        <time>2011-09-14T15:09:30Z</time>
      </trkpt>
      <trkpt lat="43.14227" lon="3.00064">
        <ele>-0.479</ele>
        <time>2011-09-14T15:09:39Z</time>
      </trkpt>
      <trkpt lat="43.14254" lon="3.00082">
        <ele>0.216</ele>
        <time>2011-09-14T15:09:43Z</time>
      </trkpt>
      <trkpt lat="43.14268" lon="3.00089">
        <ele>-0.614</ele>
        <time>2011-09-14T15:09:52Z</time>
      </trkpt>
      <trkpt lat="43.14276" lon="3.00089">
        <ele>-0.64</ele>
        <time>2011-09-14T15:10:15Z</time>
      </trkpt>
      <trkpt lat="43.14287" lon="3.00085">
        <ele>0.938</ele>
        <time>2011-09-14T15:10:37Z</time>
      </trkpt>
      <trkpt lat="43.14291" lon="3.00086">
        <ele>1.022</ele>
        <time>2011-09-14T15:10:43Z</time>
      </trkpt>
      <trkpt lat="43.1429" lon="3.00065">
        <ele>-0.999</ele>
        <time>2011-09-14T15:11:02Z</time>
      </trkpt>
      <trkpt lat="43.14292" lon="3.00064">
        <ele>-1.537</ele>
        <time>2011-09-14T15:11:22Z</time>
      </trkpt>
      <trkpt lat="43.14293" lon="3.00064">
        <ele>-1.765</ele>
        <time>2011-09-14T15:11:43Z</time>
      </trkpt>
      <trkpt lat="43.14294" lon="3.00063">
        <ele>-1.1</ele>
        <time>2011-09-14T15:12:21Z</time>
      </trkpt>
      <trkpt lat="43.14294" lon="3.00064">
        <ele>0.078</ele>
        <time>2011-09-14T15:12:54Z</time>
      </trkpt>
    </trkseg>
  </trk>
</gpx>